Flight Track Log - Related Links

Times and Time Zones

All times are in EDT time to prevent confusion due to time zone crossing. See the AFL150 flight status page for this flight to view local times or setup timezone preferences in your user account.

Time Position Orientation Groundspeed Altitude Reporting Facility
EDT Latitude Longitude Course Direction KTS MPH feet Rate Location/Type
Sun 06:19:58 AM 55.9770 37.4570 76° East 177 204 1,400  Level FlightAware ADS-B
Sun 06:21:10 AM 55.9910 37.5440 74° East 204 235 3,000 1,273 Climbing FlightAware ADS-B
Sun 06:21:37 AM 55.9990 37.5980 75° East 240 276 3,500 2,038 Climbing FlightAware ADS-B
Sun 06:22:03 AM 56.0100 37.6680 74° East 256 295 4,800 2,903 Climbing FlightAware ADS-B
Sun 06:22:08 AM 56.0130 37.6770 59° Northeast 256 295 5,000 2,400 Climbing FlightAware ADS-B
Sun 06:22:13 AM 56.0170 37.6840 44° Northeast 256 295 5,200 2,400 Climbing FlightAware ADS-B
Sun 06:22:23 AM 56.0280 37.6960 31° Northeast 259 298 5,600 2,400 Climbing FlightAware ADS-B
Sun 06:22:28 AM 56.0330 37.6990 19° North 260 299 5,800 2,160 Climbing FlightAware ADS-B
Sun 06:22:48 AM 56.0570 37.7070 11° North 269 310 6,500 2,291 Climbing FlightAware ADS-B
Sun 06:23:23 AM 56.0990 37.6940 350° North 279 321 7,900 2,400 Climbing FlightAware ADS-B
Sun 06:23:28 AM 56.1040 37.6860 318° Northwest 282 325 8,100 554 Climbing FlightAware ADS-B
Sun 06:24:28 AM 56.1370 37.5770 299° West 286 329 8,500 1,950 Climbing FlightAware ADS-B
Sun 06:24:48 AM 56.1030 37.5100 228° Southwest 314 361 10,700 2,945 Climbing FlightAware ADS-B
Sun 06:25:23 AM 56.1110 37.4290 280° West 336 387 11,200 1,059 Climbing FlightAware ADS-B
Sun 06:25:56 AM 56.1310 37.3160 288° West 375 432 11,900 1,765 Climbing FlightAware ADS-B
Sun 06:26:31 AM 56.1500 37.2050 287° West 384 442 13,200 2,571 Climbing FlightAware ADS-B
Sun 06:27:06 AM 56.1670 37.1040 287° West 388 447 14,900 2,600 Climbing FlightAware ADS-B
Sun 06:27:31 AM 56.1800 37.0300 288° West 391 450 15,800 1,800 Climbing FlightAware ADS-B
Sun 06:28:16 AM 56.2050 36.8840 287° West 400 460 17,000 1,760 Climbing FlightAware ADS-B
Sun 06:28:46 AM 56.2220 36.7820 287° West 407 468 18,000 2,057 Climbing FlightAware ADS-B
Sun 06:29:26 AM 56.2420 36.6620 287° West 415 478 19,400 1,950 Climbing FlightAware ADS-B
Sun 06:30:06 AM 56.2640 36.5330 287° West 422 486 20,600 1,521 Climbing FlightAware ADS-B
Sun 06:30:37 AM 56.2810 36.4310 287° West 424 488 21,200 1,537 Climbing FlightAware ADS-B
Sun 06:31:28 AM 56.3120 36.2400 286° West 432 497 22,700 1,704 Climbing FlightAware ADS-B
Sun 06:31:58 AM 56.3290 36.1360 286° West 436 502 23,500 1,477 Climbing FlightAware ADS-B
Sun 06:32:33 AM 56.3490 36.0140 287° West 442 509 24,300 1,360 Climbing FlightAware ADS-B
Sun 06:33:13 AM 56.3720 35.8700 286° West 446 513 25,200 1,300 Climbing FlightAware ADS-B
Sun 06:33:33 AM 56.3860 35.8030 291° West 448 516 25,600 1,200 Climbing FlightAware ADS-B
Sun 06:34:03 AM 56.4240 35.7110 307° West 451 519 26,200 1,200 Climbing FlightAware ADS-B
Sun 06:34:18 AM 56.4460 35.6780 320° Northwest 454 522 26,500 1,091 Climbing FlightAware ADS-B
Sun 06:34:58 AM 56.5240 35.6130 335° Northwest 461 531 27,200 1,114 Climbing FlightAware ADS-B
Sun 06:35:28 AM 56.5840 35.5690 338° Northwest 463 533 27,800 1,200 Climbing FlightAware ADS-B
Sun 06:36:03 AM 56.6540 35.5170 338° Northwest 467 537 28,500 880 Climbing FlightAware ADS-B
Sun 06:36:43 AM 56.7330 35.4580 338° Northwest 475 547 28,900 880 Climbing FlightAware ADS-B
Sun 06:37:18 AM 56.8060 35.4040 338° Northwest 475 547 29,600 1,292 Climbing FlightAware ADS-B
Sun 06:37:48 AM 56.8660 35.3600 338° Northwest 471 542 30,300 1,292 Climbing FlightAware ADS-B
Sun 06:38:23 AM 56.9370 35.3070 338° Northwest 470 541 31,000 1,120 Climbing FlightAware ADS-B
Sun 06:39:03 AM 57.0140 35.2490 338° Northwest 470 541 31,700 857 Climbing FlightAware ADS-B
Sun 06:39:33 AM 57.0760 35.2020 338° Northwest 463 533 32,000 257 Climbing FlightAware ADS-B
Sun 06:40:13 AM 57.1550 35.1430 338° Northwest 458 527 32,000  Level FlightAware ADS-B
Sun 06:40:43 AM 57.2100 35.1010 338° Northwest 458 527 32,000  Level FlightAware ADS-B
Sun 06:41:18 AM 57.2820 35.0460 338° Northwest 456 525 32,000  Level FlightAware ADS-B
Sun 06:41:53 AM 57.3490 34.9950 338° Northwest 454 522 32,000  Level FlightAware ADS-B
Sun 06:42:28 AM 57.4170 34.9420 337° Northwest 455 524 32,000  Level FlightAware ADS-B
Sun 06:43:03 AM 57.4850 34.8900 338° Northwest 455 524 32,000  Level FlightAware ADS-B
Sun 06:43:39 AM 57.5520 34.8370 337° Northwest 455 524 32,000  Level FlightAware ADS-B
Sun 06:44:18 AM 57.6300 34.7770 338° Northwest 453 521 32,000  Level FlightAware ADS-B
Sun 06:44:53 AM 57.6980 34.7240 337° Northwest 452 520 32,000  Level FlightAware ADS-B
Sun 06:45:23 AM 57.7530 34.6810 337° Northwest 450 518 32,000  Level FlightAware ADS-B
Sun 06:45:58 AM 57.8200 34.6270 337° Northwest 448 516 32,000  Level FlightAware ADS-B
Sun 06:46:33 AM 57.8890 34.5740 338° Northwest 447 514 32,000  Level FlightAware ADS-B
Sun 06:47:08 AM 57.9540 34.5210 337° Northwest 446 513 32,000  Level FlightAware ADS-B
Sun 06:47:43 AM 58.0140 34.4740 337° Northwest 445 512 32,000  Level FlightAware ADS-B
Sun 06:48:23 AM 58.0960 34.4080 337° Northwest 445 512 32,000  Level FlightAware ADS-B
Sun 06:48:58 AM 58.1590 34.3400 330° Northwest 447 514 32,000  Level FlightAware ADS-B
Sun 06:49:28 AM 58.2090 34.2710 324° Northwest 449 517 32,000  Level FlightAware ADS-B
Sun 06:50:03 AM 58.2620 34.1900 321° Northwest 447 514 32,000  Level FlightAware ADS-B
Sun 06:50:43 AM 58.3260 34.0940 322° Northwest 445 512 32,000  Level FlightAware ADS-B
Sun 06:51:18 AM 58.3780 33.9880 313° West 445 512 32,000  Level FlightAware ADS-B
Sun 06:51:58 AM 58.4350 33.8730 313° West 442 509 32,000  Level FlightAware ADS-B
Sun 06:52:39 AM 58.4850 33.7700 313° West 442 509 32,000  Level FlightAware ADS-B
Sun 06:53:25 AM 58.5380 33.6630 314° West 442 509 32,000  Level FlightAware ADS-B
Sun 06:54:06 AM 58.6070 33.5200 313° West 442 509 32,000  Level FlightAware ADS-B
Sun 06:54:52 AM 58.6610 33.4080 313° West 442 509 32,000  Level FlightAware ADS-B
Sun 06:55:28 AM 58.7170 33.2940 313° West 439 505 32,000  Level FlightAware ADS-B
Sun 06:55:57 AM 58.7530 33.2050 308° West 441 507 32,000  Level FlightAware ADS-B
Sun 06:56:37 AM 58.8000 33.0810 306° West 439 505 32,000  Level FlightAware ADS-B
Sun 06:57:10 AM 58.8400 32.9760 306° West 437 503 32,000  Level FlightAware ADS-B
Sun 06:57:48 AM 58.8840 32.8600 306° West 435 501 32,000 254 Level FlightAware ADS-B
Sun 06:58:21 AM 58.9210 32.7610 306° West 434 499 32,300 771 Climbing FlightAware ADS-B
Sun 06:58:58 AM 58.9640 32.6460 306° West 435 501 32,900 732 Climbing FlightAware ADS-B
Sun 06:59:43 AM 59.0210 32.4940 306° West 442 509 33,300 628 Climbing FlightAware ADS-B
Sun 07:00:24 AM 59.0710 32.3590 306° West 444 511 33,800 538 Climbing FlightAware ADS-B
Sun 07:01:01 AM 59.1140 32.2420 306° West 443 510 34,000 171 Climbing FlightAware ADS-B
Sun 07:01:34 AM 59.1520 32.1390 306° West 448 516 34,000  Level FlightAware ADS-B
Sun 07:02:14 AM 59.2020 32.0000 305° West 448 516 34,000  Level FlightAware ADS-B
Sun 07:02:47 AM 59.2410 31.8920 305° West 449 517 34,000  Level FlightAware ADS-B
Sun 07:03:20 AM 59.2810 31.7820 305° West 448 516 34,000  Level FlightAware ADS-B
Sun 07:03:58 AM 59.3220 31.6690 305° West 448 516 34,000  Level FlightAware ADS-B
Sun 07:04:35 AM 59.3690 31.5380 305° West 448 516 34,000  Level FlightAware ADS-B
Sun 07:05:16 AM 59.4170 31.4030 305° West 448 516 34,000  Level FlightAware ADS-B
Sun 07:05:58 AM 59.4660 31.2640 305° West 451 519 34,000  Level FlightAware ADS-B
Sun 07:06:35 AM 59.5110 31.1340 304° West 454 522 34,000  Level FlightAware ADS-B
Sun 07:07:04 AM 59.5460 31.0360 305° West 455 524 34,000  Level FlightAware ADS-B
Sun 07:07:38 AM 59.5840 30.9250 304° West 454 522 34,000  Level FlightAware ADS-B
Sun 07:08:20 AM 59.6350 30.7800 305° West 454 522 34,000  Level FlightAware ADS-B
Sun 07:08:53 AM 59.6600 30.6520 291° West 466 536 34,000  Level FlightAware ADS-B
Sun 07:09:35 AM 59.6600 30.4340 270° West 476 548 34,000  Level FlightAware ADS-B
Sun 07:10:07 AM 59.6570 30.2940 268° West 475 547 34,000  Level FlightAware ADS-B
Sun 07:10:37 AM 59.6540 30.1630 267° West 475 547 34,000  Level FlightAware ADS-B
Sun 07:11:20 AM 59.6500 29.9900 267° West 474 545 34,000  Level FlightAware ADS-B
Sun 07:11:57 AM 59.6460 29.8410 267° West 473 544 34,000  Level FlightAware ADS-B
Sun 07:12:32 AM 59.6410 29.6680 267° West 471 542 34,000  Level FlightAware ADS-B
Sun 07:13:02 AM 59.6380 29.5400 267° West 469 540 34,000  Level FlightAware ADS-B
Sun 07:13:51 AM 59.6320 29.3370 267° West 468 539 34,000  Level FlightAware ADS-B
Sun 07:14:25 AM 59.6420 29.2300 281° West 458 527 34,000  Level FlightAware ADS-B
Sun 07:14:57 AM 59.6580 29.0960 283° West 458 527 34,000  Level FlightAware ADS-B
Sun 07:15:27 AM 59.6750 28.9480 283° West 458 527 34,000  Level FlightAware ADS-B
Sun 07:16:02 AM 59.6920 28.8030 283° West 458 527 34,000  Level FlightAware ADS-B
Sun 07:16:46 AM 59.7130 28.6240 283° West 459 528 34,000  Level FlightAware ADS-B
Sun 07:17:18 AM 59.7280 28.4880 282° West 461 531 34,000  Level FlightAware ADS-B
Sun 07:17:54 AM 59.7450 28.3390 283° West 462 532 34,000  Level FlightAware ADS-B
Sun 07:18:30 AM 59.7620 28.1900 283° West 462 532 34,000  Level FlightAware ADS-B
Sun 07:19:06 AM 59.7780 28.0420 282° West 463 533 34,000  Level FlightAware ADS-B
Sun 07:19:38 AM 59.7930 27.9110 283° West 464 534 34,000  Level FlightAware ADS-B
Sun 07:19:58 AM 59.8020 27.8260 282° West 463 533 34,000  Level FlightAware ADS-B
Sun 07:21:24 AM 59.8350 27.5180 282° West 465 535 34,000  Level FlightAware ADS-B
Sun 07:22:12 AM 59.8610 27.2670 282° West 466 536 34,000  Level FlightAware ADS-B
Sun 07:22:44 AM 59.8740 27.1360 281° West 466 536 34,000  Level FlightAware ADS-B
Sun 07:23:20 AM 59.8900 26.9830 282° West 464 534 34,000  Level FlightAware ADS-B
Sun 07:24:18 AM 59.9040 26.8470 282° West 464 534 34,000  Level FlightAware ADS-B
Sun 07:24:58 AM 59.9310 26.5710 281° West 465 535 34,000  Level FlightAware ADS-B
Sun 07:25:34 AM 59.9490 26.4210 284° West 465 535 34,000  Level FlightAware ADS-B
Sun 07:26:10 AM 59.9750 26.2770 290° West 465 535 34,000  Level FlightAware ADS-B
Sun 07:26:42 AM 60.0060 26.1540 297° West 467 537 34,000  Level FlightAware ADS-B
Sun 07:27:18 AM 60.0480 26.0260 303° West 469 540 34,000  Level FlightAware ADS-B
Sun 07:27:56 AM 60.1020 25.9010 311° West 470 541 34,000  Level FlightAware ADS-B
Sun 07:28:28 AM 60.1520 25.8040 316° Northwest 470 541 34,000  Level FlightAware ADS-B
Sun 07:29:00 AM 60.2030 25.7110 318° Northwest 472 543 34,000  Level FlightAware ADS-B
Sun 07:29:36 AM 60.2720 25.6300 330° Northwest 471 542 34,000  Level FlightAware ADS-B
Sun 07:30:16 AM 60.3470 25.5420 330° Northwest 472 543 34,000  Level FlightAware ADS-B
Sun 07:30:48 AM 60.4050 25.4670 327° Northwest 471 542 34,000  Level FlightAware ADS-B
Sun 07:31:24 AM 60.4720 25.3830 328° Northwest 473 544 34,000  Level FlightAware ADS-B
Sun 07:32:02 AM 60.5430 25.2940 328° Northwest 474 545 34,000  Level FlightAware ADS-B
Sun 07:32:34 AM 60.6010 25.2200 328° Northwest 474 545 34,000  Level FlightAware ADS-B
Sun 07:33:10 AM 60.6670 25.1360 328° Northwest 474 545 34,000  Level FlightAware ADS-B
Sun 07:33:46 AM 60.7350 25.0500 328° Northwest 474 545 34,000  Level FlightAware ADS-B
Sun 07:34:22 AM 60.7980 24.9680 328° Northwest 473 544 34,000  Level FlightAware ADS-B
Sun 07:34:54 AM 60.8620 24.8870 328° Northwest 472 543 34,000  Level FlightAware ADS-B
Sun 07:35:28 AM 60.9220 24.8080 327° Northwest 471 542 34,000  Level FlightAware ADS-B
Sun 07:36:06 AM 60.9910 24.7190 328° Northwest 472 543 34,000  Level FlightAware ADS-B
Sun 07:36:38 AM 61.0510 24.6400 328° Northwest 473 544 34,000  Level FlightAware ADS-B
Sun 07:37:12 AM 61.1150 24.5560 328° Northwest 476 548 34,000  Level FlightAware ADS-B
Sun 07:37:48 AM 61.1790 24.4720 328° Northwest 479 551 34,000  Level FlightAware ADS-B
Sun 07:38:26 AM 61.2510 24.3770 328° Northwest 480 552 34,000  Level FlightAware ADS-B
Sun 07:38:54 AM 61.3040 24.3060 327° Northwest 482 555 34,000  Level FlightAware ADS-B
Sun 07:39:34 AM 61.3790 24.2060 327° Northwest 483 556 34,000  Level FlightAware ADS-B
Sun 07:39:58 AM 61.4230 24.1470 327° Northwest 483 556 34,000  Level FlightAware ADS-B
Sun 07:41:05 AM 61.5280 24.0030 327° Northwest 484 557 34,000  Level FlightAware ADS-B
Sun 07:41:50 AM 61.6240 23.8380 321° Northwest 484 557 34,000  Level FlightAware ADS-B
Sun 07:42:20 AM 61.6750 23.7500 321° Northwest 486 559 34,000  Level FlightAware ADS-B
Sun 07:42:51 AM 61.7300 23.6540 320° Northwest 487 560 34,000  Level FlightAware ADS-B
Sun 07:44:01 AM 61.8500 23.4480 321° Northwest 491 565 34,000  Level FlightAware ADS-B
Sun 07:44:37 AM 61.9170 23.3320 321° Northwest 491 565 34,000  Level FlightAware ADS-B
Sun 07:45:14 AM 61.9820 23.2180 321° Northwest 492 566 34,000  Level FlightAware ADS-B
Sun 07:45:46 AM 62.0390 23.1180 321° Northwest 492 566 34,000  Level FlightAware ADS-B
Sun 07:46:21 AM 62.0990 23.0130 321° Northwest 494 568 34,000  Level FlightAware ADS-B
Sun 07:47:00 AM 62.1680 22.8900 320° Northwest 495 570 34,000  Level FlightAware ADS-B
Sun 07:47:24 AM 62.2090 22.8170 320° Northwest 497 572 34,000  Level FlightAware ADS-B
Sun 07:48:01 AM 62.2740 22.7010 320° Northwest 497 572 34,000  Level FlightAware ADS-B
Sun 07:48:41 AM 62.3460 22.5720 320° Northwest 500 575 34,000  Level FlightAware ADS-B
Sun 07:49:16 AM 62.4070 22.4610 320° Northwest 501 577 34,000  Level FlightAware ADS-B
Sun 07:50:04 AM 62.4900 22.3080 320° Northwest 502 578 34,000 217 Level FlightAware ADS-B
Sun 07:50:39 AM 62.5520 22.1940 320° Northwest 502 578 34,300 720 Climbing FlightAware ADS-B
Sun 07:51:19 AM 62.6210 22.0670 320° Northwest 503 579 34,900 857 Climbing FlightAware ADS-B
Sun 07:51:49 AM 62.6760 21.9670 320° Northwest 497 572 35,300 646 Climbing FlightAware ADS-B
Sun 07:52:24 AM 62.7380 21.8500 319° Northwest 505 581 35,600 560 Climbing FlightAware ADS-B
Sun 07:53:04 AM 62.8070 21.7190 319° Northwest 509 586 36,000 300 Climbing FlightAware ADS-B
Sun 07:53:44 AM 62.8800 21.5820 319° Northwest 511 588 36,000  Level FlightAware ADS-B
Sun 07:54:14 AM 62.9340 21.4790 319° Northwest 509 586 36,000  Level FlightAware ADS-B
Sun 07:54:59 AM 63.0130 21.3280 319° Northwest 509 586 36,000  Level FlightAware ADS-B
Sun 07:55:34 AM 63.0730 21.2130 319° Northwest 508 585 36,000  Level FlightAware ADS-B
Sun 07:56:09 AM 63.1360 21.0900 319° Northwest 502 578 36,000  Level FlightAware ADS-B
Sun 07:56:44 AM 63.1970 20.9700 318° Northwest 502 578 36,000  Level FlightAware ADS-B
Sun 07:57:19 AM 63.2590 20.8490 319° Northwest 502 578 36,000  Level FlightAware ADS-B
Sun 07:57:54 AM 63.3210 20.7260 318° Northwest 502 578 36,000  Level FlightAware ADS-B
Sun 07:58:29 AM 63.3820 20.6060 319° Northwest 502 578 36,000  Level FlightAware ADS-B
Sun 07:59:04 AM 63.4430 20.4840 318° Northwest 503 579 36,000  Level FlightAware ADS-B
Sun 07:59:40 AM 63.5050 20.3590 318° Northwest 503 579 36,000  Level FlightAware ADS-B
Sun 08:00:00 AM 63.5390 20.2910 318° Northwest 503 579 36,000  Level FlightAware ADS-B
Sun 08:01:10 AM 63.6570 20.0500 318° Northwest 504 580 36,000  Level FlightAware ADS-B
Sun 08:01:41 AM 63.7150 19.9320 318° Northwest 504 580 36,000  Level FlightAware ADS-B
Sun 08:02:21 AM 63.7850 19.7860 317° Northwest 503 579 36,000  Level FlightAware ADS-B
Sun 08:02:56 AM 63.8480 19.6550 318° Northwest 508 585 36,000  Level FlightAware ADS-B
Sun 08:03:00 AM 63.8550 19.6420 321° Northwest 508 585 36,000  Level FlightAware ADS-B
Sun 08:04:02 AM 63.9610 19.4170 317° Northwest 507 583 36,000  Level FlightAware ADS-B
Sun 08:04:34 AM 64.0160 19.3020 318° Northwest 507 583 36,000  Level FlightAware ADS-B
Sun 08:05:10 AM 64.0780 19.1700 317° Northwest 506 582 36,000  Level FlightAware ADS-B
Sun 08:05:50 AM 64.1450 19.0260 317° Northwest 505 581 36,000  Level FlightAware ADS-B
Sun 08:06:26 AM 64.2030 18.9000 317° Northwest 505 581 36,000  Level FlightAware ADS-B
Sun 08:07:02 AM 64.2680 18.7610 317° Northwest 505 581 36,000  Level FlightAware ADS-B
Sun 08:07:40 AM 64.3320 18.6200 316° Northwest 506 582 36,000  Level FlightAware ADS-B
Sun 08:08:14 AM 64.3890 18.4940 316° Northwest 506 582 36,000  Level FlightAware ADS-B
Sun 08:08:48 AM 64.4470 18.3670 317° Northwest 507 583 36,000  Level FlightAware ADS-B
Sun 08:09:24 AM 64.5060 18.2340 316° Northwest 507 583 36,000  Level FlightAware ADS-B
Sun 08:10:00 AM 64.5670 18.0990 316° Northwest 507 583 36,000  Level FlightAware ADS-B
Sun 08:10:36 AM 64.6260 17.9650 316° Northwest 509 586 36,000  Level FlightAware ADS-B
Sun 08:11:02 AM 64.6700 17.8650 316° Northwest 509 586 36,000  Level FlightAware ADS-B
Sun 08:11:57 AM 64.7490 17.6850 316° Northwest 510 587 36,000  Level FlightAware ADS-B
Sun 08:12:32 AM 64.8230 17.5140 316° Northwest 507 583 36,000  Level FlightAware ADS-B
Sun 08:13:00 AM 64.8680 17.4100 316° Northwest 507 583 36,000  Level FlightAware ADS-B
Sun 08:13:34 AM 64.9260 17.2760 316° Northwest 505 581 36,000  Level FlightAware ADS-B
Sun 08:14:10 AM 64.9850 17.1370 315° West 504 580 36,000  Level FlightAware ADS-B
Sun 08:14:42 AM 65.0350 17.0190 315° West 503 579 36,000  Level FlightAware ADS-B
Sun 08:15:22 AM 65.1020 16.8590 315° West 504 580 36,000  Level FlightAware ADS-B
Sun 08:15:58 AM 65.1620 16.7160 315° West 504 580 36,000  Level FlightAware ADS-B
Sun 08:16:30 AM 65.2140 16.5900 315° West 504 580 36,000  Level FlightAware ADS-B
Sun 08:17:06 AM 65.2720 16.4480 314° West 504 580 36,000  Level FlightAware ADS-B
Sun 08:17:38 AM 65.3250 16.3210 315° West 505 581 36,000  Level FlightAware ADS-B
Sun 08:18:14 AM 65.3840 16.1750 314° West 507 583 36,000  Level FlightAware ADS-B
Sun 08:18:48 AM 65.4390 16.0410 315° West 509 586 36,000  Level FlightAware ADS-B
Sun 08:19:24 AM 65.4980 15.8930 314° West 509 586 36,000  Level FlightAware ADS-B
Sun 08:22:00 AM 65.5839 15.2123 287° West  Level Estimated
Sun 08:22:46 AM 65.7470 15.2610 287° West 500 575 36,000  Level FlightAware ADS-B
Sun 08:23:28 AM 65.8580 14.9730 313° West 499 574 36,000  Level FlightAware ADS-B
Sun 08:24:02 AM 65.9210 14.8090 313° West 500 575 36,000  Level FlightAware ADS-B
Sun 08:24:35 AM 65.9750 14.6670 313° West 499 574 36,000  Level FlightAware ADS-B
Sun 08:25:14 AM 66.0510 14.4640 313° West 498 573 36,000  Level FlightAware ADS-B
Sun 08:25:47 AM 66.0980 14.3360 312° West 498 573 36,000  Level FlightAware ADS-B
Sun 08:26:32 AM 66.1710 14.1410 313° West 496 571 36,000  Level FlightAware ADS-B
Sun 08:27:03 AM 66.2170 14.0180 313° West 497 572 36,000  Level FlightAware ADS-B
Sun 08:27:37 AM 66.2680 13.8770 312° West 492 566 36,000  Level FlightAware ADS-B
Sun 08:28:13 AM 66.3270 13.7160 312° West 493 567 36,000  Level FlightAware ADS-B
Sun 08:28:48 AM 66.3780 13.5720 312° West 494 568 36,000  Level FlightAware ADS-B
Sun 08:29:28 AM 66.4420 13.3940 312° West 490 564 36,000  Level FlightAware ADS-B
Sun 08:29:57 AM 66.4840 13.2760 312° West 489 563 36,000  Level FlightAware ADS-B
Sun 08:30:38 AM 66.5470 13.0970 312° West 491 565 36,000  Level FlightAware ADS-B
Sun 08:31:07 AM 66.5930 12.9670 312° West 490 564 36,000  Level FlightAware ADS-B
Sun 08:31:43 AM 66.6460 12.8120 311° West 495 570 36,000  Level FlightAware ADS-B
Sun 08:32:22 AM 66.7040 12.6470 312° West 495 570 36,000  Level FlightAware ADS-B
Sun 08:32:58 AM 66.7560 12.4930 311° West 494 568 36,000  Level FlightAware ADS-B
Sun 08:33:37 AM 66.8170 12.3130 311° West 496 571 36,000  Level FlightAware ADS-B
Sun 08:34:13 AM 66.8700 12.1580 311° West 497 572 36,000  Level FlightAware ADS-B
Sun 08:34:48 AM 66.9210 12.0040 310° West 498 573 36,000  Level FlightAware ADS-B
Sun 08:35:23 AM 66.9730 11.8480 310° West 498 573 36,000  Level FlightAware ADS-B
Sun 08:35:57 AM 67.0250 11.6920 311° West 497 572 36,000  Level FlightAware ADS-B
Sun 08:36:52 AM 67.0990 11.4650 310° West 496 571 36,000  Level FlightAware ADS-B
Sun 08:37:28 AM 67.1440 11.3260 310° West 496 571 36,000  Level FlightAware ADS-B
Sun 08:38:16 AM 67.2150 11.1050 310° West 491 565 36,000  Level FlightAware ADS-B
Sun 08:38:53 AM 67.2600 10.9610 309° West 491 565 36,000  Level FlightAware ADS-B
Sun 08:39:29 AM 67.3030 10.8210 309° West 491 565 36,000  Level FlightAware ADS-B
Sun 08:40:05 AM 67.3470 10.6810 309° West 491 565 36,000  Level FlightAware ADS-B
Sun 08:40:43 AM 67.3930 10.5330 309° West 491 565 36,000  Level FlightAware ADS-B
Sun 08:41:20 AM 67.4380 10.3880 309° West 491 565 36,000  Level FlightAware ADS-B
Sun 08:41:56 AM 67.4820 10.2470 309° West 491 565 36,000  Level FlightAware ADS-B
Sun 08:42:32 AM 67.5260 10.1060 309° West 491 565 36,000  Level FlightAware ADS-B
Sun 08:43:08 AM 67.5690 9.9650 309° West 491 565 36,000  Level FlightAware ADS-B
Sun 08:43:45 AM 67.6140 9.8190 309° West 491 565 36,000  Level FlightAware ADS-B
Sun 08:44:21 AM 67.6580 9.6770 309° West 491 565 36,000  Level FlightAware ADS-B
Sun 08:44:58 AM 67.7030 9.5310 309° West 491 565 36,000  Level FlightAware ADS-B
Sun 08:45:34 AM 67.7470 9.3880 309° West 491 565 36,000  Level FlightAware ADS-B
Sun 08:46:10 AM 67.7900 9.2450 309° West 491 565 36,000  Level FlightAware ADS-B
Sun 08:46:46 AM 67.8340 9.1020 309° West 491 565 36,000  Level FlightAware ADS-B
Sun 08:47:22 AM 67.8780 8.9590 309° West 491 565 36,000  Level FlightAware ADS-B
Sun 08:50:00 AM 67.9296 8.1776 280° West  Level Estimated
Sun 08:51:00 AM 67.9482 7.8800 280° West  Level Estimated
Sun 08:52:00 AM 67.9662 7.5819 279° West  Level Estimated
Sun 08:53:00 AM 67.9838 7.2834 279° West  Level Estimated
Sun 08:54:00 AM 68.0007 6.9844 279° West  Level Estimated
Sun 08:55:00 AM 68.0172 6.6849 278° West  Level Estimated
Sun 08:56:00 AM 68.0331 6.3851 278° West  Level Estimated
Sun 08:57:00 AM 68.0484 6.0849 278° West  Level Estimated
Sun 08:58:00 AM 68.0632 5.7842 278° West  Level Estimated
Sun 08:59:00 AM 68.0775 5.4832 277° West  Level Estimated
Sun 09:00:00 AM 68.0912 5.1818 277° West  Level Estimated
Sun 09:01:00 AM 68.1044 4.8801 277° West  Level Estimated
Sun 09:02:00 AM 68.1170 4.5780 277° West  Level Estimated
Sun 09:03:00 AM 68.1290 4.2756 276° West  Level Estimated
Sun 09:04:00 AM 68.1405 3.9729 276° West  Level Estimated
Sun 09:05:00 AM 68.1515 3.6699 276° West  Level Estimated
Sun 09:06:00 AM 68.1619 3.3666 275° West  Level Estimated
Sun 09:07:00 AM 68.1717 3.0631 275° West  Level Estimated
Sun 09:08:00 AM 68.1810 2.7592 275° West  Level Estimated
Sun 09:09:00 AM 68.1898 2.4552 275° West  Level Estimated
Sun 09:10:00 AM 68.1979 2.1509 274° West  Level Estimated
Sun 09:11:00 AM 68.2056 1.8464 274° West  Level Estimated
Sun 09:12:00 AM 68.2126 1.5418 274° West  Level Estimated
Sun 09:13:00 AM 68.2191 1.2369 273° West  Level Estimated
Sun 09:14:00 AM 68.2251 0.9319 273° West  Level Estimated
Sun 09:15:00 AM 68.2304 0.6267 273° West  Level Estimated
Sun 09:16:00 AM 68.2353 0.3214 273° West  Level Estimated
Sun 09:17:00 AM 68.2395 0.0160 272° West  Level Estimated
Sun 09:18:00 AM 68.2432 -0.2896 272° West  Level Estimated
Sun 09:19:00 AM 68.2464 -0.5952 272° West  Level Estimated
Sun 09:20:00 AM 68.2489 -0.9009 271° West  Level Estimated
Sun 09:21:00 AM 68.2510 -1.2066 271° West  Level Estimated
Sun 09:22:00 AM 68.2524 -1.5124 271° West  Level Estimated
Sun 09:23:00 AM 68.2533 -1.8183 271° West  Level Estimated
Sun 09:24:00 AM 68.2536 -2.1242 270° West  Level Estimated
Sun 09:25:00 AM 68.2534 -2.4300 270° West  Level Estimated
Sun 09:26:00 AM 68.2526 -2.7359 270° West  Level Estimated
Sun 09:27:00 AM 68.2513 -3.0417 269° West  Level Estimated
Sun 09:28:00 AM 68.2494 -3.3475 269° West  Level Estimated
Sun 09:29:00 AM 68.2469 -3.6532 269° West  Level Estimated
Sun 09:30:00 AM 68.2438 -3.9588 269° West  Level Estimated
Sun 09:31:00 AM 68.2402 -4.2644 268° West  Level Estimated
Sun 09:32:00 AM 68.2361 -4.5698 268° West  Level Estimated
Sun 09:33:00 AM 68.2314 -4.8751 268° West  Level Estimated
Sun 09:34:00 AM 68.2261 -5.1803 267° West  Level Estimated
Sun 09:35:00 AM 68.2202 -5.4854 267° West  Level Estimated
Sun 09:36:00 AM 68.2138 -5.7903 267° West  Level Estimated
Sun 09:37:00 AM 68.2069 -6.0950 267° West  Level Estimated
Sun 09:38:00 AM 68.1993 -6.3995 266° West  Level Estimated
Sun 09:39:00 AM 68.1913 -6.7038 266° West  Level Estimated
Sun 09:40:00 AM 68.1826 -7.0079 266° West  Level Estimated
Sun 09:41:00 AM 68.1735 -7.3118 265° West  Level Estimated
Sun 09:42:00 AM 68.1637 -7.6154 265° West  Level Estimated
Sun 09:43:00 AM 68.1534 -7.9187 265° West  Level Estimated
Sun 09:44:00 AM 68.1426 -8.2218 265° West  Level Estimated
Sun 09:45:00 AM 68.1312 -8.5245 264° West  Level Estimated
Sun 09:46:00 AM 68.1192 -8.8270 264° West  Level Estimated
Sun 09:47:00 AM 68.1067 -9.1291 264° West  Level Estimated
Sun 09:48:00 AM 68.0936 -9.4309 264° West  Level Estimated
Sun 09:49:00 AM 68.0800 -9.7324 263° West  Level Estimated
Sun 09:50:00 AM 68.0659 -10.0335 263° West  Level Estimated
Sun 09:51:00 AM 68.0511 -10.3342 263° West  Level Estimated
Sun 09:52:00 AM 68.0359 -10.6345 262° West  Level Estimated
Sun 09:53:00 AM 68.0201 -10.9344 262° West  Level Estimated
Sun 09:54:00 AM 68.0038 -11.2339 262° West  Level Estimated
Sun 09:55:00 AM 67.9869 -11.5330 262° West  Level Estimated
Sun 09:56:00 AM 67.9694 -11.8316 261° West  Level Estimated
Sun 09:57:00 AM 67.9515 -12.1298 261° West  Level Estimated
Sun 09:58:00 AM 67.9330 -12.4275 261° West  Level Estimated
Sun 09:59:00 AM 67.9139 -12.7247 260° West  Level Estimated
Sun 10:00:00 AM 67.8943 -13.0214 260° West  Level Estimated
Sun 10:01:00 AM 67.8742 -13.3176 260° West  Level Estimated
Sun 10:02:00 AM 67.8536 -13.6133 260° West  Level Estimated
Sun 10:03:00 AM 67.8324 -13.9085 259° West  Level Estimated
Sun 10:04:00 AM 67.8107 -14.2032 259° West  Level Estimated
Sun 10:05:00 AM 67.7884 -14.4972 259° West  Level Estimated
Sun 10:06:00 AM 67.7657 -14.7908 259° West  Level Estimated
Sun 10:07:00 AM 67.7424 -15.0837 258° West  Level Estimated
Sun 10:08:00 AM 67.7186 -15.3760 258° West  Level Estimated
Sun 10:09:00 AM 67.6942 -15.6678 258° West  Level Estimated
Sun 10:10:00 AM 67.6694 -15.9589 257° West  Level Estimated
Sun 10:11:00 AM 67.6440 -16.2495 257° West  Level Estimated
Sun 10:12:00 AM 67.6181 -16.5394 257° West  Level Estimated
Sun 10:13:00 AM 67.5917 -16.8286 257° West  Level Estimated
Sun 10:14:00 AM 67.5648 -17.1172 256° West  Level Estimated
Sun 10:15:00 AM 67.5373 -17.4051 256° West  Level Estimated
Sun 10:16:00 AM 67.5094 -17.6924 256° West  Level Estimated
Sun 10:17:00 AM 67.4809 -17.9790 256° West  Level Estimated
Sun 10:18:00 AM 67.4520 -18.2649 255° West  Level Estimated
Sun 10:19:00 AM 67.4225 -18.5501 255° West  Level Estimated
Sun 10:20:00 AM 67.3925 -18.8345 255° West  Level Estimated
Sun 10:21:00 AM 67.3621 -19.1183 255° West  Level Estimated
Sun 10:22:00 AM 67.3311 -19.4013 254° West  Level Estimated
Sun 10:23:00 AM 67.2996 -19.6836 254° West  Level Estimated
Sun 10:24:00 AM 67.2677 -19.9652 254° West  Level Estimated
Sun 10:25:00 AM 67.2352 -20.2459 253° West  Level Estimated
Sun 10:26:00 AM 67.2023 -20.5260 253° West  Level Estimated
Sun 10:27:00 AM 67.1689 -20.8052 253° West  Level Estimated
Sun 10:28:00 AM 67.1350 -21.0837 253° West  Level Estimated
Sun 10:29:00 AM 67.1006 -21.3614 252° West  Level Estimated
Sun 10:30:00 AM 67.0657 -21.6383 252° West  Level Estimated
Sun 10:31:00 AM 67.0304 -21.9144 252° West  Level Estimated
Sun 10:32:00 AM 66.9945 -22.1897 252° West  Level Estimated
Sun 10:33:00 AM 66.9582 -22.4642 251° West  Level Estimated
Sun 10:34:00 AM 66.9215 -22.7378 251° West  Level Estimated
Sun 10:35:00 AM 66.8842 -23.0106 251° West  Level Estimated
Sun 10:36:00 AM 66.8465 -23.2826 251° West  Level Estimated
Sun 10:37:00 AM 66.8083 -23.5538 250° West  Level Estimated
Sun 10:38:00 AM 66.7697 -23.8241 250° West  Level Estimated
Sun 10:39:00 AM 66.7306 -24.0935 250° West  Level Estimated
Sun 10:40:00 AM 66.6910 -24.3621 250° West  Level Estimated
Sun 10:41:00 AM 66.6510 -24.6298 249° West  Level Estimated
Sun 10:42:00 AM 66.6105 -24.8967 249° West  Level Estimated
Sun 10:43:00 AM 66.5696 -25.1627 249° West  Level Estimated
Sun 10:44:00 AM 66.5283 -25.4278 249° West  Level Estimated
Sun 10:45:00 AM 66.4864 -25.6920 248° West  Level Estimated
Sun 10:46:00 AM 66.4442 -25.9553 248° West  Level Estimated
Sun 10:47:00 AM 66.4015 -26.2177 248° West  Level Estimated
Sun 10:48:00 AM 66.3583 -26.4793 248° West  Level Estimated
Sun 10:49:00 AM 66.3148 -26.7399 248° West  Level Estimated
Sun 10:50:00 AM 66.2707 -26.9996 247° West  Level Estimated
Sun 10:51:00 AM 66.2211 -27.2884 247° West  Level Estimated
Sun 10:52:00 AM 66.1709 -27.5761 247° West  Level Estimated
Sun 10:53:00 AM 66.1202 -27.8626 246° West  Level Estimated
Sun 10:54:00 AM 66.0690 -28.1479 246° West  Level Estimated
Sun 10:55:00 AM 66.0173 -28.4321 246° West  Level Estimated
Sun 10:56:00 AM 65.9650 -28.7152 246° West  Level Estimated
Sun 10:57:00 AM 65.9122 -28.9970 245° Southwest  Level Estimated
Sun 10:58:00 AM 65.8589 -29.2778 245° Southwest  Level Estimated
Sun 10:59:00 AM 65.8051 -29.5573 245° Southwest  Level Estimated
Sun 11:00:00 AM 65.7508 -29.8357 245° Southwest  Level Estimated
Sun 11:01:00 AM 65.6959 -30.1129 244° Southwest  Level Estimated
Sun 11:02:00 AM 65.6406 -30.3889 244° Southwest  Level Estimated
Sun 11:03:00 AM 65.5848 -30.6637 244° Southwest  Level Estimated
Sun 11:04:00 AM 65.5285 -30.9374 244° Southwest  Level Estimated
Sun 11:05:00 AM 65.4716 -31.2099 243° Southwest  Level Estimated
Sun 11:06:00 AM 65.4143 -31.4812 243° Southwest  Level Estimated
Sun 11:07:00 AM 65.3566 -31.7513 243° Southwest  Level Estimated
Sun 11:08:00 AM 65.2983 -32.0202 243° Southwest  Level Estimated
Sun 11:09:00 AM 65.2396 -32.2879 242° Southwest  Level Estimated
Sun 11:10:00 AM 65.1804 -32.5544 242° Southwest  Level Estimated
Sun 11:11:00 AM 65.1207 -32.8198 242° Southwest  Level Estimated
Sun 11:12:00 AM 65.0605 -33.0839 242° Southwest  Level Estimated
Sun 11:13:00 AM 64.9999 -33.3469 241° Southwest  Level Estimated
Sun 11:14:00 AM 64.9388 -33.6086 241° Southwest  Level Estimated
Sun 11:15:00 AM 64.8773 -33.8692 241° Southwest  Level Estimated
Sun 11:15:01 AM 67.3400 -44.7550 241° Southwest 493 567 36,000  Level FlightAware ADS-B
Sun 11:15:26 AM 67.3020 -44.8510 224° Southwest 493 567 36,000  Level FlightAware ADS-B
Sun 11:16:18 AM 67.2220 -45.0520 224° Southwest 494 568 36,000  Level FlightAware ADS-B
Sun 11:16:50 AM 67.1660 -45.1950 225° Southwest 494 568 36,000  Level FlightAware ADS-B
Sun 11:17:30 AM 67.1100 -45.3340 224° Southwest 494 568 36,000  Level FlightAware ADS-B
Sun 11:18:01 AM 67.0460 -45.4920 224° Southwest 494 568 36,000  Level FlightAware ADS-B
Sun 11:18:34 AM 67.0010 -45.6000 223° Southwest 494 568 36,000  Level FlightAware ADS-B
Sun 11:19:16 AM 66.9420 -45.7420 223° Southwest 494 568 36,000  Level FlightAware ADS-B
Sun 11:19:49 AM 66.8710 -45.9210 225° Southwest 494 568 36,000  Level FlightAware ADS-B
Sun 11:20:23 AM 66.8320 -46.0140 223° Southwest 493 567 36,000  Level FlightAware ADS-B
Sun 11:21:14 AM 66.7600 -46.1850 223° Southwest 493 567 36,000  Level FlightAware ADS-B
Sun 11:21:48 AM 66.6730 -46.3940 224° Southwest 491 565 36,000  Level FlightAware ADS-B
Sun 11:22:34 AM 66.6030 -46.5570 223° Southwest 492 566 36,000  Level FlightAware ADS-B
Sun 11:23:10 AM 66.5520 -46.6770 223° Southwest 492 566 36,000  Level FlightAware ADS-B
Sun 11:24:06 AM 66.4730 -46.8620 223° Southwest 492 566 36,000  Level FlightAware ADS-B
Sun 11:24:45 AM 66.4180 -46.9910 223° Southwest 492 566 36,000  Level FlightAware ADS-B
Sun 11:25:21 AM 66.3670 -47.1090 223° Southwest 492 566 36,000  Level FlightAware ADS-B
Sun 11:26:09 AM 66.2990 -47.2670 223° Southwest 492 566 36,000  Level FlightAware ADS-B
Sun 11:26:45 AM 66.2480 -47.3850 223° Southwest 492 566 36,000  Level FlightAware ADS-B
Sun 11:27:21 AM 66.1970 -47.5030 223° Southwest 492 566 36,000  Level FlightAware ADS-B
Sun 11:27:59 AM 66.1430 -47.6270 223° Southwest 492 566 36,000  Level FlightAware ADS-B
Sun 11:28:47 AM 66.0750 -47.7830 223° Southwest 492 566 36,000  Level FlightAware ADS-B
Sun 11:29:23 AM 66.0240 -47.9000 223° Southwest 492 566 36,000  Level FlightAware ADS-B
Sun 11:29:59 AM 65.9730 -48.0170 223° Southwest 492 566 36,000  Level FlightAware ADS-B
Sun 11:30:36 AM 65.9210 -48.1370 223° Southwest 492 566 36,000  Level FlightAware ADS-B
Sun 11:31:24 AM 65.8530 -48.2920 223° Southwest 492 566 36,000  Level FlightAware ADS-B
Sun 11:32:00 AM 65.8020 -48.4080 223° Southwest 492 566 36,000  Level FlightAware ADS-B
Sun 11:34:00 AM 65.6190 -48.8324 224° Southwest  Level Estimated
Sun 11:35:00 AM 65.5270 -49.0424 223° Southwest  Level Estimated
Sun 11:36:00 AM 65.4348 -49.2509 223° Southwest  Level Estimated
Sun 11:37:00 AM 65.3422 -49.4579 223° Southwest  Level Estimated
Sun 11:38:00 AM 65.2494 -49.6635 223° Southwest  Level Estimated
Sun 11:39:00 AM 65.1563 -49.8677 223° Southwest  Level Estimated
Sun 11:40:00 AM 65.0630 -50.0704 223° Southwest  Level Estimated
Sun 11:41:00 AM 64.9694 -50.2717 222° Southwest  Level Estimated
Sun 11:42:00 AM 64.8755 -50.4715 222° Southwest  Level Estimated
Sun 11:42:09 AM 64.7220 -51.1410 222° Southwest 493 567 36,000  Level FlightAware ADS-B
Sun 11:42:38 AM 64.6900 -51.2690 240° Southwest 493 567 36,000  Level FlightAware ADS-B
Sun 11:43:43 AM 64.6140 -51.5690 240° Southwest 493 567 36,000  Level FlightAware ADS-B
Sun 11:44:18 AM 64.5730 -51.7260 239° Southwest 494 568 36,000  Level FlightAware ADS-B
Sun 11:45:00 AM 64.5240 -51.9180 239° Southwest 495 570 36,000  Level FlightAware ADS-B
Sun 11:45:39 AM 64.4770 -52.0970 239° Southwest 494 568 36,000  Level FlightAware ADS-B
Sun 11:46:11 AM 64.4390 -52.2420 239° Southwest 494 568 36,000  Level FlightAware ADS-B
Sun 11:46:52 AM 64.3910 -52.4240 239° Southwest 495 570 36,000  Level FlightAware ADS-B
Sun 11:47:22 AM 64.3560 -52.5550 238° Southwest 495 570 36,000  Level FlightAware ADS-B
Sun 11:48:02 AM 64.3070 -52.7380 238° Southwest 496 571 36,000  Level FlightAware ADS-B
Sun 11:48:37 AM 64.2650 -52.8940 238° Southwest 497 572 36,000  Level FlightAware ADS-B
Sun 11:49:10 AM 64.2260 -53.0360 238° Southwest 497 572 36,000  Level FlightAware ADS-B
Sun 11:49:50 AM 64.1840 -53.1870 237° Southwest 497 572 36,000  Level FlightAware ADS-B
Sun 11:50:30 AM 64.1270 -53.3960 238° Southwest 498 573 36,000  Level FlightAware ADS-B
Sun 11:51:10 AM 64.0780 -53.5740 238° Southwest 498 573 36,000  Level FlightAware ADS-B
Sun 11:51:52 AM 64.0320 -53.7340 237° Southwest 498 573 36,000  Level FlightAware ADS-B
Sun 11:52:16 AM 64.0060 -53.8240 237° Southwest 498 573 36,000  Level FlightAware ADS-B
Sun 11:53:04 AM 63.9550 -54.0040 237° Southwest 498 573 36,000  Level FlightAware ADS-B
Sun 11:53:40 AM 63.9170 -54.1380 237° Southwest 498 573 36,000  Level FlightAware ADS-B
Sun 11:54:16 AM 63.8780 -54.2730 237° Southwest 498 573 36,000  Level FlightAware ADS-B
Sun 11:54:52 AM 63.8400 -54.4070 237° Southwest 498 573 36,000  Level FlightAware ADS-B
Sun 11:55:39 AM 63.7900 -54.5820 237° Southwest 498 573 36,000  Level FlightAware ADS-B
Sun 11:56:16 AM 63.7500 -54.7190 237° Southwest 498 573 36,000  Level FlightAware ADS-B
Sun 11:56:52 AM 63.7120 -54.8530 237° Southwest 498 573 36,000  Level FlightAware ADS-B
Sun 11:57:28 AM 63.6730 -54.9860 237° Southwest 498 573 36,000  Level FlightAware ADS-B
Sun 11:58:05 AM 63.6340 -55.1230 237° Southwest 498 573 36,000  Level FlightAware ADS-B
Sun 11:58:51 AM 63.5850 -55.2930 237° Southwest 498 573 36,000  Level FlightAware ADS-B
Sun 11:59:28 AM 63.5450 -55.4300 237° Southwest 498 573 36,000  Level FlightAware ADS-B
Sun 12:00:33 PM 63.4760 -55.6690 237° Southwest 498 573 36,000  Level FlightAware ADS-B
Sun 12:01:14 PM 63.3333 -56.1167 237° Southwest 500 575 36,000  Level Gander Center
Sun 12:02:14 PM 63.2500 -56.3500 232° Southwest 500 575 36,000  Level Gander Center
Sun 12:03:14 PM 63.1667 -56.6167 235° Southwest 510 587 36,000  Level Gander Center
Sun 12:04:14 PM 63.0833 -56.8833 235° Southwest 510 587 36,000  Level Gander Center
Sun 12:05:14 PM 63.0167 -57.1167 238° Southwest 500 575 36,000  Level Gander Center
Sun 12:06:14 PM 62.9333 -57.3833 236° Southwest 490 564 36,000  Level Gander Center
Sun 12:07:14 PM 62.8667 -57.6167 238° Southwest 520 598 36,000  Level Gander Center
Sun 12:08:14 PM 62.8000 -57.8333 236° Southwest 510 587 36,000  Level Gander Center
Sun 12:10:00 PM 62.6772 -58.2254 236° Southwest  Level FlightAware Approximate
Sun 12:16:15 PM 62.1500 -59.8333 234° Southwest 440 506 36,000  Level Gander Center
Sun 12:17:00 PM 62.1654 -59.7906 235° Southwest  Level FlightAware Approximate
Sun 12:17:15 PM 62.0667 -60.0500 231° Southwest 470 541 36,000  Level Gander Center
Sun 12:18:00 PM 62.0909 -60.0099 234° Southwest  Level FlightAware Approximate
Sun 12:18:15 PM 61.9833 -60.2500 228° Southwest 470 541 36,000  Level Gander Center
Sun 12:19:00 PM 62.0160 -60.2280 234° Southwest  Level FlightAware Approximate
Sun 12:19:15 PM 61.9000 -60.4667 231° Southwest 480 552 36,000  Level Gander Center
Sun 12:20:15 PM 61.8333 -60.7167 241° Southwest 480 552 36,000  Level Gander Center
Sun 12:21:08 PM 61.7833 -60.9000 240° Southwest 470 541 36,000  Level Gander Center
Sun 12:22:08 PM 61.7000 -61.1000 229° Southwest 480 552 36,000  Level Gander Center
Sun 12:23:08 PM 61.6167 -61.3167 231° Southwest 470 541 36,000  Level Gander Center
Sun 12:24:08 PM 61.5333 -61.5667 235° Southwest 470 541 36,000  Level Gander Center
Sun 12:25:08 PM 61.4500 -61.7667 229° Southwest 480 552 36,000  Level Gander Center
Sun 12:26:08 PM 61.3833 -62.0167 241° Southwest 480 552 36,000  Level Gander Center
Sun 12:27:08 PM 61.3000 -62.1833 224° Southwest 470 541 36,000  Level Gander Center
Sun 12:28:08 PM 61.2167 -62.4500 237° Southwest 470 541 36,000  Level Gander Center
Sun 12:29:08 PM 61.1333 -62.5833 218° Southwest 460 529 36,000  Level Gander Center
Sun 12:30:08 PM 61.0333 -62.8667 234° Southwest 480 552 36,000  Level Gander Center
Sun 12:31:08 PM 60.9667 -63.0667 236° Southwest 470 541 36,000  Level Gander Center
Sun 12:32:08 PM 60.8833 -63.2667 229° Southwest 450 518 36,000  Level Gander Center
Sun 12:33:08 PM 60.8000 -63.4667 230° Southwest 470 541 36,000  Level Gander Center
Sun 12:34:08 PM 60.7333 -63.6667 236° Southwest 460 529 36,000  Level Gander Center
Sun 12:35:08 PM 60.6333 -63.9000 229° Southwest 460 529 36,000  Level Gander Center
Sun 12:36:08 PM 60.5500 -64.0833 227° Southwest 460 529 36,000  Level Gander Center
Sun 12:37:08 PM 60.4833 -64.2833 236° Southwest 460 529 36,000  Level Gander Center
Sun 12:38:08 PM 60.4000 -64.4833 230° Southwest 460 529 36,000  Level Gander Center
Sun 12:39:08 PM 60.3167 -64.6667 227° Southwest 460 529 36,000  Level Gander Center
Sun 12:40:08 PM 60.2333 -64.8667 230° Southwest 450 518 36,000  Level Gander Center
Sun 12:41:08 PM 60.1500 -65.0500 228° Southwest 450 518 36,000  Level Gander Center
Sun 12:42:08 PM 60.0667 -65.2167 225° Southwest 450 518 36,000  Level Gander Center
Sun 12:43:08 PM 59.9667 -65.4000 223° Southwest 450 518 36,000  Level Gander Center
Sun 12:44:08 PM 59.8833 -65.5667 225° Southwest 440 506 36,000  Level Gander Center
Sun 12:45:08 PM 59.7833 -65.7167 217° Southwest 440 506 36,000  Level Gander Center
Sun 12:46:08 PM 59.6833 -65.8667 217° Southwest 440 506 36,000  Level Gander Center
Sun 12:47:08 PM 59.6000 -66.0167 222° Southwest 450 518 36,000  Level Gander Center
Sun 12:48:15 PM 59.5000 -66.2000 223° Southwest 450 518 36,000  Level Gander Center
Sun 12:49:15 PM 59.4000 -66.3500 217° Southwest 450 518 36,000  Level Gander Center
Sun 12:50:08 PM 59.3167 -66.5000 223° Southwest 450 518 36,000  Level Gander Center
Sun 12:51:08 PM 59.2333 -66.6500 223° Southwest 440 506 36,000  Level Gander Center
Sun 12:52:08 PM 59.1333 -66.8000 218° Southwest 440 506 36,000  Level Gander Center
Sun 12:53:08 PM 59.0333 -66.9500 218° Southwest 440 506 36,000  Level Gander Center
Sun 12:54:08 PM 58.9500 -67.1333 229° Southwest 440 506 36,000  Level Gander Center
Sun 12:55:08 PM 58.8500 -67.2833 218° Southwest 450 518 36,000  Level Gander Center
Sun 12:56:08 PM 58.7500 -67.4167 215° Southwest 450 518 36,000  Level Gander Center
Sun 12:57:08 PM 58.6500 -67.6000 224° Southwest 450 518 36,000  Level Gander Center
Sun 12:58:08 PM 58.5667 -67.7333 220° Southwest 450 518 36,000  Level Gander Center
Sun 12:59:08 PM 58.4500 -67.8833 214° Southwest 450 518 36,000  Level Gander Center
Sun 01:00:08 PM 58.3667 -68.0167 220° Southwest 450 518 36,000  Level Gander Center
Sun 01:01:08 PM 58.2833 -68.1667 223° Southwest 450 518 36,000  Level Gander Center
Sun 01:02:08 PM 58.1833 -68.3333 221° Southwest 450 518 36,000  Level Gander Center
Sun 01:03:08 PM 58.0667 -68.4833 214° Southwest 460 529 36,000  Level Gander Center
Sun 01:04:15 PM 57.9667 -68.6500 222° Southwest 450 518 36,000  Level Gander Center
Sun 01:05:15 PM 57.8500 -68.7833 211° Southwest 450 518 36,000  Level Gander Center
Sun 01:05:53 PM 57.8000 -68.8167 200° South 440 506 36,000  Level Montreal Center
Sun 01:06:53 PM 57.7000 -68.9333 212° Southwest 440 506 36,000  Level Montreal Center
Sun 01:07:53 PM 57.6000 -69.0833 219° Southwest 440 506 36,000  Level Montreal Center
Sun 01:08:53 PM 57.5000 -69.2167 216° Southwest 440 506 36,000  Level Montreal Center
Sun 01:09:53 PM 57.4167 -69.3333 217° Southwest 440 506 36,000  Level Montreal Center
Sun 01:10:53 PM 57.3000 -69.4833 215° Southwest 440 506 36,000  Level Montreal Center
Sun 01:11:53 PM 57.2000 -69.6167 216° Southwest 440 506 36,000  Level Montreal Center
Sun 01:12:53 PM 57.1000 -69.7333 212° Southwest 440 506 36,000  Level Montreal Center
Sun 01:13:53 PM 57.0000 -69.8667 216° Southwest 440 506 36,000  Level Montreal Center
Sun 01:14:53 PM 56.9000 -70.0167 219° Southwest 440 506 36,000  Level Montreal Center
Sun 01:15:53 PM 56.7833 -70.1167 205° Southwest 440 506 36,000  Level Montreal Center
Sun 01:16:53 PM 56.7000 -70.2500 221° Southwest 440 506 36,000  Level Montreal Center
Sun 01:17:53 PM 56.6000 -70.4000 220° Southwest 440 506 36,000  Level Montreal Center
Sun 01:18:53 PM 56.5000 -70.5000 209° Southwest 440 506 36,000  Level Montreal Center
Sun 01:19:53 PM 56.3833 -70.6333 212° Southwest 440 506 36,000  Level Montreal Center
Sun 01:20:53 PM 56.3000 -70.7667 222° Southwest 440 506 36,000  Level Montreal Center
Sun 01:22:15 PM 56.1500 -70.9833 219° Southwest 450 518 36,000  Level Gander Center
Sun 01:23:15 PM 56.0333 -71.1000 209° Southwest 440 506 36,000  Level Gander Center
Sun 01:24:15 PM 55.9500 -71.2000 214° Southwest 440 506 36,000  Level Gander Center
Sun 01:25:15 PM 55.8333 -71.3500 216° Southwest 440 506 36,000  Level Gander Center
Sun 01:25:53 PM 55.7833 -71.3833 201° Southwest 440 506 36,000  Level Montreal Center
Sun 01:26:53 PM 55.6833 -71.4833 209° Southwest 440 506 36,000  Level Montreal Center
Sun 01:27:53 PM 55.5833 -71.6167 217° Southwest 430 495 36,000  Level Montreal Center
Sun 01:28:53 PM 55.4833 -71.7167 210° Southwest 440 506 36,000  Level Montreal Center
Sun 01:29:53 PM 55.3667 -71.8500 213° Southwest 430 495 36,000  Level Montreal Center
Sun 01:30:53 PM 55.2833 -71.9667 219° Southwest 430 495 36,000  Level Montreal Center
Sun 01:31:53 PM 55.1667 -72.1000 213° Southwest 440 506 36,000  Level Montreal Center
Sun 01:32:53 PM 55.0667 -72.2000 210° Southwest 440 506 36,000  Level Montreal Center
Sun 01:33:53 PM 54.9667 -72.3167 214° Southwest 430 495 36,000  Level Montreal Center
Sun 01:34:53 PM 54.8667 -72.4167 210° Southwest 430 495 36,000  Level Montreal Center
Sun 01:35:53 PM 54.7667 -72.5500 218° Southwest 430 495 36,000  Level Montreal Center
Sun 01:36:53 PM 54.6667 -72.6667 214° Southwest 430 495 36,000  Level Montreal Center
Sun 01:37:53 PM 54.5667 -72.7667 210° Southwest 430 495 36,000  Level Montreal Center
Sun 01:38:53 PM 54.4667 -72.9000 218° Southwest 430 495 36,000  Level Montreal Center
Sun 01:39:53 PM 54.3667 -72.9833 206° Southwest 430 495 36,000  Level Montreal Center
Sun 01:40:53 PM 54.2500 -73.1167 214° Southwest 430 495 36,000  Level Montreal Center
Sun 01:41:53 PM 54.1500 -73.2333 214° Southwest 430 495 36,000  Level Montreal Center
Sun 01:42:53 PM 54.0500 -73.3167 206° Southwest 430 495 36,000  Level Montreal Center
Sun 01:43:53 PM 53.9500 -73.4500 218° Southwest 430 495 36,000  Level Montreal Center
Sun 01:44:53 PM 53.8333 -73.5667 211° Southwest 440 506 36,000  Level Montreal Center
Sun 01:45:53 PM 53.7333 -73.6500 206° Southwest 430 495 36,000  Level Montreal Center
Sun 01:46:53 PM 53.6333 -73.7500 211° Southwest 440 506 36,000  Level Montreal Center
Sun 01:47:53 PM 53.5167 -73.8333 203° Southwest 430 495 36,000  Level Montreal Center
Sun 01:48:53 PM 53.4167 -73.9333 211° Southwest 430 495 36,000  Level Montreal Center
Sun 01:49:53 PM 53.3000 -74.0167 203° Southwest 430 495 36,000  Level Montreal Center
Sun 01:50:53 PM 53.2000 -74.1000 207° Southwest 440 506 36,000  Level Montreal Center
Sun 01:51:53 PM 53.0833 -74.2333 214° Southwest 440 506 36,000  Level Montreal Center
Sun 01:52:53 PM 52.9667 -74.3167 203° Southwest 440 506 36,000  Level Montreal Center
Sun 01:53:53 PM 52.8667 -74.4000 207° Southwest 440 506 36,000  Level Montreal Center
Sun 01:54:53 PM 52.7667 -74.4833 207° Southwest 430 495 36,000  Level Montreal Center
Sun 01:55:53 PM 52.6500 -74.5833 207° Southwest 430 495 36,000  Level Montreal Center
Sun 01:56:53 PM 52.5500 -74.6667 207° Southwest 440 506 36,000  Level Montreal Center
Sun 01:57:53 PM 52.4167 -74.7500 201° Southwest 440 506 36,000  Level Montreal Center
Sun 01:58:53 PM 52.3167 -74.8333 207° Southwest 440 506 36,000  Level Montreal Center
Sun 01:59:53 PM 52.2000 -74.9167 204° Southwest 430 495 36,000  Level Montreal Center
Sun 02:00:53 PM 52.1000 -75.0000 207° Southwest 430 495 36,000  Level Montreal Center
Sun 02:01:53 PM 51.9833 -75.0833 204° Southwest 460 529 36,000  Level Montreal Center
Sun 02:02:53 PM 51.8667 -75.2000 212° Southwest 440 506 36,000  Level Montreal Center
Sun 02:03:53 PM 51.7667 -75.2500 197° South 440 506 36,000  Level Montreal Center
Sun 02:04:53 PM 51.6500 -75.3667 212° Southwest 440 506 36,000  Level Montreal Center
Sun 02:05:53 PM 51.5333 -75.4500 204° Southwest 440 506 36,000  Level Montreal Center
Sun 02:06:53 PM 51.4333 -75.5333 207° Southwest 440 506 36,000  Level Montreal Center
Sun 02:07:53 PM 51.3167 -75.6167 204° Southwest 440 506 36,000  Level Montreal Center
Sun 02:08:53 PM 51.2167 -75.7000 208° Southwest 430 495 36,000  Level Montreal Center
Sun 02:09:53 PM 51.1000 -75.7833 204° Southwest 440 506 36,000  Level Montreal Center
Sun 02:10:53 PM 51.0000 -75.8500 203° Southwest 440 506 36,000  Level Montreal Center
Sun 02:11:53 PM 50.8833 -75.9333 204° Southwest 440 506 36,000  Level Montreal Center
Sun 02:12:53 PM 50.7667 -76.0167 204° Southwest 440 506 36,000  Level Montreal Center
Sun 02:13:53 PM 50.6500 -76.1000 204° Southwest 440 506 36,000  Level Montreal Center
Sun 02:14:53 PM 50.5500 -76.1833 208° Southwest 440 506 36,000  Level Montreal Center
Sun 02:15:53 PM 50.4333 -76.2500 200° South 440 506 36,000  Level Montreal Center
Sun 02:16:53 PM 50.3333 -76.3333 208° Southwest 440 506 36,000  Level Montreal Center
Sun 02:17:53 PM 50.2167 -76.4167 205° Southwest 440 506 36,000  Level Montreal Center
Sun 02:18:53 PM 50.0833 -76.5167 206° Southwest 440 506 36,000  Level Montreal Center
Sun 02:19:53 PM 49.9833 -76.6000 208° Southwest 440 506 36,000  Level Montreal Center
Sun 02:20:53 PM 49.8667 -76.6667 200° South 440 506 36,000  Level Montreal Center
Sun 02:21:53 PM 49.7500 -76.7500 205° Southwest 450 518 36,000  Level Montreal Center
Sun 02:22:53 PM 49.6333 -76.8167 200° South 450 518 36,000  Level Montreal Center
Sun 02:23:53 PM 49.5333 -76.9000 208° Southwest 430 495 36,000  Level Montreal Center
Sun 02:24:53 PM 49.4000 -77.0000 206° Southwest 470 541 36,000  Level Montreal Center
Sun 02:25:53 PM 49.3000 -77.0667 204° Southwest 450 518 36,000  Level Montreal Center
Sun 02:26:53 PM 49.1833 -77.1500 205° Southwest 440 506 36,000  Level Montreal Center
Sun 02:27:53 PM 49.0667 -77.2167 201° Southwest 450 518 36,000  Level Montreal Center
Sun 02:28:53 PM 48.9500 -77.3000 205° Southwest 450 518 36,000  Level Montreal Center
Sun 02:29:53 PM 48.8333 -77.3667 201° Southwest 450 518 36,000  Level Montreal Center
Sun 02:30:53 PM 48.7167 -77.4667 209° Southwest 440 506 36,000  Level Montreal Center
Sun 02:31:53 PM 48.6167 -77.5167 198° South 440 506 36,000  Level Montreal Center
Sun 02:32:53 PM 48.5000 -77.6167 210° Southwest 450 518 36,000  Level Montreal Center
Sun 02:33:53 PM 48.3833 -77.6833 201° Southwest 450 518 36,000  Level Montreal Center
Sun 02:39:29 PM 47.7300 -78.0810 201° Southwest 460 529 36,000  Level FlightAware ADS-B
Sun 02:39:58 PM 47.6710 -78.1150 201° Southwest 462 532 36,000  Level FlightAware ADS-B
Sun 02:40:56 PM 47.5540 -78.1820 201° Southwest 465 535 36,000  Level FlightAware ADS-B
Sun 02:41:31 PM 47.4850 -78.2220 201° Southwest 466 536 36,000  Level FlightAware ADS-B
Sun 02:42:15 PM 47.3970 -78.2720 201° Southwest 468 539 36,000  Level FlightAware ADS-B
Sun 02:42:19 PM 47.3880 -78.2770 201° Southwest 468 539 36,000  Level FlightAware ADS-B
Sun 02:43:22 PM 47.2610 -78.3500 201° Southwest 468 539 36,000  Level FlightAware ADS-B
Sun 02:44:13 PM 47.1590 -78.4070 201° Southwest 467 537 36,000  Level FlightAware ADS-B
Sun 02:44:45 PM 47.0940 -78.4440 201° Southwest 467 537 36,000  Level FlightAware ADS-B
Sun 02:45:22 PM 47.0210 -78.4850 201° Southwest 467 537 36,000  Level FlightAware ADS-B
Sun 02:45:58 PM 46.9470 -78.5260 201° Southwest 467 537 36,000  Level FlightAware ADS-B
Sun 02:46:34 PM 46.8750 -78.5670 201° Southwest 467 537 36,000  Level FlightAware ADS-B
Sun 02:47:07 PM 46.8080 -78.6050 201° Southwest 464 534 36,000  Level FlightAware ADS-B
Sun 02:47:43 PM 46.7350 -78.6450 201° Southwest 462 532 36,000  Level FlightAware ADS-B
Sun 02:48:14 PM 46.6750 -78.6780 201° Southwest 462 532 36,000  Level FlightAware ADS-B
Sun 02:48:51 PM 46.6000 -78.7200 201° Southwest 462 532 36,000  Level FlightAware ADS-B
Sun 02:49:26 PM 46.5300 -78.7580 200° South 463 533 36,000  Level FlightAware ADS-B
Sun 02:50:03 PM 46.4570 -78.7990 201° Southwest 462 532 36,000  Level FlightAware ADS-B
Sun 02:50:38 PM 46.3870 -78.8370 201° Southwest 464 534 36,000  Level FlightAware ADS-B
Sun 02:51:18 PM 46.3060 -78.8810 201° Southwest 467 537 36,000  Level FlightAware ADS-B
Sun 02:51:56 PM 46.2290 -78.9240 201° Southwest 468 539 36,000  Level FlightAware ADS-B
Sun 02:52:27 PM 46.1650 -78.9580 200° South 470 541 36,000  Level FlightAware ADS-B
Sun 02:53:04 PM 46.0910 -78.9980 201° Southwest 468 539 36,000  Level FlightAware ADS-B
Sun 02:53:39 PM 46.0200 -79.0370 201° Southwest 466 536 36,000  Level FlightAware ADS-B
Sun 02:54:15 PM 45.9470 -79.0760 200° South 466 536 36,000  Level FlightAware ADS-B
Sun 02:54:48 PM 45.8830 -79.1110 201° Southwest 464 534 36,000  Level FlightAware ADS-B
Sun 02:55:24 PM 45.8090 -79.1510 201° Southwest 463 533 36,000  Level FlightAware ADS-B
Sun 02:56:00 PM 45.7390 -79.1880 200° South 463 533 36,000  Level FlightAware ADS-B
Sun 02:56:33 PM 45.6700 -79.2250 201° Southwest 464 534 36,000  Level FlightAware ADS-B
Sun 02:57:08 PM 45.6010 -79.2620 201° Southwest 464 534 36,000  Level FlightAware ADS-B
Sun 02:57:44 PM 45.5300 -79.2990 200° South 464 534 36,000  Level FlightAware ADS-B
Sun 02:58:17 PM 45.4610 -79.3360 201° Southwest 464 534 36,000  Level FlightAware ADS-B
Sun 02:58:52 PM 45.3910 -79.3730 200° South 466 536 36,000  Level FlightAware ADS-B
Sun 02:59:29 PM 45.3160 -79.4130 201° Southwest 466 536 36,000  Level FlightAware ADS-B
Sun 02:59:54 PM 45.2660 -79.4380 199° South 466 536 36,000  Level FlightAware ADS-B
Sun 03:02:21 PM 45.0130 -79.5690 200° South 466 536 36,000  Level FlightAware ADS-B
Sun 03:03:22 PM 44.9080 -79.6230 200° South 466 536 36,000  Level FlightAware ADS-B
Sun 03:03:54 PM 44.8090 -79.6760 201° Southwest 471 542 36,000  Level FlightAware ADS-B
Sun 03:04:33 PM 44.7260 -79.7190 200° South 473 544 36,000  Level FlightAware ADS-B
Sun 03:05:06 PM 44.6430 -79.7620 200° South 473 544 36,000  Level FlightAware ADS-B
Sun 03:05:45 PM 44.5550 -79.8180 204° Southwest 461 531 36,000  Level FlightAware ADS-B
Sun 03:05:55 PM 44.5370 -79.8320 209° Southwest 460 529 36,000  Level FlightAware ADS-B
Sun 03:06:49 PM 44.4380 -79.9120 210° Southwest 462 532 36,000  Level FlightAware ADS-B
Sun 03:07:24 PM 44.3790 -79.9570 209° Southwest 464 534 36,000  Level FlightAware ADS-B
Sun 03:08:00 PM 44.3130 -80.0080 209° Southwest 464 534 36,000  Level FlightAware ADS-B
Sun 03:08:30 PM 44.2550 -80.0530 209° Southwest 464 534 36,000  Level FlightAware ADS-B
Sun 03:09:20 PM 44.1550 -80.1290 209° Southwest 465 535 36,000  Level FlightAware ADS-B
Sun 03:09:50 PM 44.0950 -80.1750 209° Southwest 465 535 36,000  Level FlightAware ADS-B
Sun 03:10:25 PM 44.0310 -80.2240 209° Southwest 464 534 36,000  Level FlightAware ADS-B
Sun 03:11:00 PM 43.9660 -80.2730 208° Southwest 464 534 36,000  Level FlightAware ADS-B
Sun 03:11:46 PM 43.8790 -80.3390 209° Southwest 463 533 36,000  Level FlightAware ADS-B
Sun 03:12:20 PM 43.8120 -80.3900 209° Southwest 462 532 36,000  Level FlightAware ADS-B
Sun 03:12:53 PM 43.7540 -80.4330 208° Southwest 461 531 36,000  Level FlightAware ADS-B
Sun 03:13:28 PM 43.6880 -80.4830 209° Southwest 462 532 36,000  Level FlightAware ADS-B
Sun 03:13:58 PM 43.6380 -80.5200 208° Southwest 462 532 36,000  Level FlightAware ADS-B
Sun 03:14:33 PM 43.5720 -80.5700 209° Southwest 463 533 36,000  Level FlightAware ADS-B
Sun 03:15:13 PM 43.4900 -80.6310 208° Southwest 460 529 36,000  Level FlightAware ADS-B
Sun 03:15:48 PM 43.4250 -80.6800 209° Southwest 460 529 36,000  Level FlightAware ADS-B
Sun 03:16:23 PM 43.3600 -80.7280 208° Southwest 460 529 36,000  Level FlightAware ADS-B
Sun 03:16:58 PM 43.2950 -80.7760 208° Southwest 461 531 36,000  Level FlightAware ADS-B
Sun 03:17:33 PM 43.2290 -80.8240 208° Southwest 461 531 36,000  Level FlightAware ADS-B
Sun 03:18:08 PM 43.1630 -80.8730 208° Southwest 459 528 36,000  Level FlightAware ADS-B
Sun 03:18:46 PM 43.0970 -80.9210 208° Southwest 460 529 36,000  Level FlightAware ADS-B
Sun 03:19:18 PM 43.0320 -80.9690 208° Southwest 461 531 36,000  Level FlightAware ADS-B
Sun 03:19:53 PM 42.9660 -81.0180 209° Southwest 463 533 36,000  Level FlightAware ADS-B
Sun 03:19:58 PM 42.9570 -81.0240 206° Southwest 463 533 36,000  Level FlightAware ADS-B
Sun 03:21:21 PM 42.8170 -81.1260 208° Southwest 463 533 36,000  Level FlightAware ADS-B
Sun 03:21:51 PM 42.7390 -81.1830 208° Southwest 463 533 36,000  Level FlightAware ADS-B
Sun 03:22:28 PM 42.6760 -81.2290 208° Southwest 466 536 36,000  Level FlightAware ADS-B
Sun 03:23:03 PM 42.6100 -81.2760 208° Southwest 468 539 36,000  Level FlightAware ADS-B
Sun 03:23:48 PM 42.5220 -81.3410 209° Southwest 470 541 36,000  Level FlightAware ADS-B
Sun 03:24:31 PM 42.4370 -81.4010 208° Southwest 471 542 36,000  Level FlightAware ADS-B
Sun 03:25:07 PM 42.3720 -81.4480 208° Southwest 472 543 36,000  Level FlightAware ADS-B
Sun 03:25:37 PM 42.3130 -81.4910 208° Southwest 471 542 36,000  Level FlightAware ADS-B
Sun 03:26:11 PM 42.2470 -81.5380 208° Southwest 471 542 36,000  Level FlightAware ADS-B
Sun 03:26:53 PM 42.1630 -81.5970 208° Southwest 468 539 36,000  Level FlightAware ADS-B
Sun 03:27:27 PM 42.1000 -81.6420 208° Southwest 467 537 36,000  Level FlightAware ADS-B
Sun 03:28:11 PM 42.0140 -81.7030 208° Southwest 469 540 36,000  Level FlightAware ADS-B
Sun 03:28:47 PM 41.9460 -81.7510 208° Southwest 470 541 36,000  Level FlightAware ADS-B
Sun 03:29:23 PM 41.8770 -81.8000 208° Southwest 470 541 36,000  Level FlightAware ADS-B
Sun 03:30:03 PM 41.7990 -81.8550 208° Southwest 468 539 36,000  Level FlightAware ADS-B
Sun 03:30:41 PM 41.7290 -81.9040 208° Southwest 468 539 36,000  Level FlightAware ADS-B
Sun 03:31:19 PM 41.6510 -81.9590 208° Southwest 468 539 36,000  Level FlightAware ADS-B
Sun 03:31:55 PM 41.5860 -82.0040 207° Southwest 462 532 36,000  Level FlightAware ADS-B
Sun 03:32:35 PM 41.5110 -82.0560 207° Southwest 458 527 36,000  Level FlightAware ADS-B
Sun 03:33:09 PM 41.4470 -82.1000 207° Southwest 456 525 36,000  Level FlightAware ADS-B
Sun 03:33:47 PM 41.3750 -82.1470 206° Southwest 466 536 36,000  Level FlightAware ADS-B
Sun 03:34:21 PM 41.3000 -82.1800 198° South 479 551 36,000  Level FlightAware ADS-B
Sun 03:34:55 PM 41.2260 -82.2070 195° South 480 552 36,000  Level FlightAware ADS-B
Sun 03:35:31 PM 41.1500 -82.2360 196° South 483 556 36,000  Level FlightAware ADS-B
Sun 03:36:07 PM 41.0720 -82.2640 195° South 482 555 36,000  Level FlightAware ADS-B
Sun 03:36:44 PM 40.9910 -82.2940 196° South 483 556 36,000  Level FlightAware ADS-B
Sun 03:37:17 PM 40.9220 -82.3180 195° South 482 555 36,000  Level FlightAware ADS-B
Sun 03:37:53 PM 40.8440 -82.3460 195° South 481 554 36,000  Level FlightAware ADS-B
Sun 03:38:25 PM 40.7750 -82.3700 195° South 479 551 36,000  Level FlightAware ADS-B
Sun 03:38:57 PM 40.7070 -82.3940 195° South 477 549 36,000  Level FlightAware ADS-B
Sun 03:39:35 PM 40.6270 -82.4220 195° South 475 547 36,000  Level FlightAware ADS-B
Sun 03:39:55 PM 40.5850 -82.4370 195° South 475 547 36,000  Level FlightAware ADS-B
Sun 03:41:05 PM 40.4600 -82.4810 195° South 476 548 36,000  Level FlightAware ADS-B
Sun 03:41:45 PM 40.3500 -82.5190 195° South 477 549 36,000  Level FlightAware ADS-B
Sun 03:42:19 PM 40.2790 -82.5440 195° South 476 548 36,000  Level FlightAware ADS-B
Sun 03:42:47 PM 40.2170 -82.5660 195° South 474 545 36,000  Level FlightAware ADS-B
Sun 03:43:49 PM 40.0800 -82.5920 188° South 496 571 36,000  Level FlightAware ADS-B
Sun 03:44:25 PM 39.9980 -82.5980 183° South 496 571 36,000  Level FlightAware ADS-B
Sun 03:44:57 PM 39.9230 -82.6040 184° South 497 572 36,000  Level FlightAware ADS-B
Sun 03:45:31 PM 39.8450 -82.6090 183° South 498 573 36,000  Level FlightAware ADS-B
Sun 03:46:09 PM 39.7590 -82.6150 183° South 499 574 36,000  Level FlightAware ADS-B
Sun 03:46:41 PM 39.6840 -82.6200 183° South 498 573 36,000  Level FlightAware ADS-B
Sun 03:47:13 PM 39.6100 -82.6250 183° South 498 573 36,000  Level FlightAware ADS-B
Sun 03:47:54 PM 39.5180 -82.6310 183° South 498 573 36,000  Level FlightAware ADS-B
Sun 03:48:29 PM 39.4360 -82.6370 183° South 497 572 36,000  Level FlightAware ADS-B
Sun 03:49:01 PM 39.3610 -82.6420 183° South 497 572 36,000  Level FlightAware ADS-B
Sun 03:49:39 PM 39.2740 -82.6480 183° South 500 575 36,000  Level FlightAware ADS-B
Sun 03:50:11 PM 39.2030 -82.6520 182° South 501 577 36,000  Level FlightAware ADS-B
Sun 03:50:47 PM 39.1160 -82.6580 183° South 502 578 36,000  Level FlightAware ADS-B
Sun 03:51:25 PM 39.0290 -82.6640 183° South 502 578 36,000  Level FlightAware ADS-B
Sun 03:51:55 PM 38.9600 -82.6680 183° South 502 578 36,000  Level FlightAware ADS-B
Sun 03:52:33 PM 38.8720 -82.6740 183° South 502 578 36,000  Level FlightAware ADS-B
Sun 03:53:09 PM 38.7860 -82.6800 183° South 503 579 36,000  Level FlightAware ADS-B
Sun 03:53:38 PM 38.7320 -82.6830 182° South 503 579 36,000  Level FlightAware ADS-B
Sun 03:54:19 PM 38.6240 -82.6900 183° South 504 580 36,000  Level FlightAware ADS-B
Sun 03:54:52 PM 38.5480 -82.6950 183° South 505 581 36,000  Level FlightAware ADS-B
Sun 03:55:37 PM 38.4410 -82.7020 183° South 505 581 36,000  Level FlightAware ADS-B
Sun 03:56:18 PM 38.3500 -82.7080 183° South 506 582 36,000  Level FlightAware ADS-B
Sun 03:57:03 PM 38.2405 -82.7153 183° South 36,000  Level FlightAware ADS-B
Sun 03:57:21 PM 38.1980 -82.7181 183° South 509 586 36,000  Level FlightAware ADS-B
Sun 03:57:51 PM 38.1252 -82.7228 183° South 510 587 36,000  Level FlightAware ADS-B
Sun 03:58:24 PM 38.0489 -82.7278 183° South 510 587 36,000  Level FlightAware ADS-B
Sun 03:58:56 PM 37.9734 -82.7326 183° South 511 588 36,000  Level FlightAware ADS-B
Sun 03:59:32 PM 37.8889 -82.7380 183° South 511 588 36,000  Level FlightAware ADS-B
Sun 04:00:20 PM 37.7770 -82.7456 183° South 508 585 36,000  Level FlightAware ADS-B
Sun 04:01:08 PM 37.6694 -82.7722 191° South 482 555 36,000  Level FlightAware ADS-B
Sun 04:01:42 PM 37.5988 -82.8051 200° South 469 540 36,000  Level FlightAware ADS-B
Sun 04:02:35 PM 37.4983 -82.8695 207° Southwest 458 527 36,000  Level FlightAware ADS-B
Sun 04:03:08 PM 37.4366 -82.9104 208° Southwest 459 528 36,000  Level FlightAware ADS-B
Sun 04:03:40 PM 37.3765 -82.9499 208° Southwest 458 527 36,000  Level FlightAware ADS-B
Sun 04:04:12 PM 37.3173 -82.9887 208° Southwest 458 527 36,000  Level FlightAware ADS-B
Sun 04:04:43 PM 37.2592 -83.0267 208° Southwest 457 526 36,000  Level FlightAware ADS-B
Sun 04:05:13 PM 37.2024 -83.0639 208° Southwest 458 527 36,000  Level FlightAware ADS-B
Sun 04:05:43 PM 37.1454 -83.1011 207° Southwest 459 528 36,000  Level FlightAware ADS-B
Sun 04:06:13 PM 37.0901 -83.1371 207° Southwest 460 529 36,000  Level FlightAware ADS-B
Sun 04:06:44 PM 37.0302 -83.1761 207° Southwest 461 531 36,000  Level FlightAware ADS-B
Sun 04:07:17 PM 36.9688 -83.2158 207° Southwest 462 532 36,000  Level FlightAware ADS-B
Sun 04:07:47 PM 36.9112 -83.2532 207° Southwest 464 534 36,000  Level FlightAware ADS-B
Sun 04:08:17 PM 36.8540 -83.2901 207° Southwest 464 534 36,000  Level FlightAware ADS-B
Sun 04:08:50 PM 36.7917 -83.3303 207° Southwest 464 534 36,000  Level FlightAware ADS-B
Sun 04:09:20 PM 36.7340 -83.3675 207° Southwest 464 534 36,000  Level FlightAware ADS-B
Sun 04:09:51 PM 36.6752 -83.4053 207° Southwest 465 535 36,000  Level FlightAware ADS-B
Sun 04:10:21 PM 36.6161 -83.4433 207° Southwest 465 535 36,000  Level FlightAware ADS-B
Sun 04:10:52 PM 36.5571 -83.4810 207° Southwest 462 532 36,000  Level FlightAware ADS-B
Sun 04:11:22 PM 36.5002 -83.5174 207° Southwest 459 528 36,000  Level FlightAware ADS-B
Sun 04:11:53 PM 36.4429 -83.5540 207° Southwest 456 525 36,000  Level FlightAware ADS-B
Sun 04:12:24 PM 36.3850 -83.5910 207° Southwest 454 522 36,000  Level FlightAware ADS-B
Sun 04:12:55 PM 36.3273 -83.6277 207° Southwest 453 521 36,000  Level FlightAware ADS-B
Sun 04:13:26 PM 36.2684 -83.6651 207° Southwest 452 520 36,000  Level FlightAware ADS-B
Sun 04:13:58 PM 36.2124 -83.7007 207° Southwest 451 519 36,000  Level FlightAware ADS-B
Sun 04:14:28 PM 36.1540 -83.7377 207° Southwest 451 519 36,000  Level FlightAware ADS-B
Sun 04:14:59 PM 36.0968 -83.7738 207° Southwest 452 520 36,000  Level FlightAware ADS-B
Sun 04:15:29 PM 36.0407 -83.8093 207° Southwest 454 522 36,000  Level FlightAware ADS-B
Sun 04:16:05 PM 35.9745 -83.8509 207° Southwest 453 521 36,000  Level FlightAware ADS-B
Sun 04:16:24 PM 35.9373 -83.8713 204° Southwest 459 528 36,000  Level FlightAware ADS-B
Sun 04:16:37 PM 35.9103 -83.8834 200° South 463 533 36,000  Level FlightAware ADS-B
Sun 04:17:00 PM 35.8627 -83.9011 197° South 470 541 36,000  Level FlightAware ADS-B
Sun 04:17:23 PM 35.8135 -83.9147 193° South 477 549 36,000  Level FlightAware ADS-B
Sun 04:17:58 PM 35.7384 -83.9339 192° South 476 548 36,000  Level FlightAware ADS-B
Sun 04:18:31 PM 35.6680 -83.9521 192° South 478 550 36,000  Level FlightAware ADS-B
Sun 04:19:03 PM 35.5986 -83.9692 191° South 478 550 36,000  Level FlightAware ADS-B
Sun 04:19:34 PM 35.5333 -83.9850 191° South 478 550 36,000  Level FlightAware ADS-B
Sun 04:20:11 PM 35.4499 -84.0052 191° South 479 551 36,000  Level FlightAware ADS-B
Sun 04:20:41 PM 35.3844 -84.0210 191° South 480 552 36,000  Level FlightAware ADS-B
Sun 04:21:34 PM 35.2700 -84.0486 191° South 480 552 36,000  Level FlightAware ADS-B
Sun 04:22:04 PM 35.2048 -84.0642 191° South 481 554 36,000  Level FlightAware ADS-B
Sun 04:22:43 PM 35.1360 -84.0810 191° South 482 555 36,000  Level FlightAware ADS-B
Sun 04:22:54 PM 35.0958 -84.0903 191° South 482 555 36,000  Level FlightAware ADS-B
Sun 04:23:25 PM 35.0271 -84.1067 191° South 481 554 36,000  Level FlightAware ADS-B
Sun 04:23:55 PM 34.9608 -84.1225 191° South 481 554 36,000  Level FlightAware ADS-B
Sun 04:24:36 PM 34.8717 -84.1438 191° South 482 555 36,000  Level FlightAware ADS-B
Sun 04:25:07 PM 34.8023 -84.1603 191° South 483 556 36,000  Level FlightAware ADS-B
Sun 04:25:39 PM 34.7322 -84.1770 191° South 482 555 36,000  Level FlightAware ADS-B
Sun 04:26:21 PM 34.6405 -84.1987 191° South 483 556 36,000  Level FlightAware ADS-B
Sun 04:26:51 PM 34.5747 -84.2142 191° South 481 554 36,000  Level FlightAware ADS-B
Sun 04:27:22 PM 34.5092 -84.2297 191° South 479 551 36,000  Level FlightAware ADS-B
Sun 04:27:52 PM 34.4425 -84.2454 191° South 479 551 36,000  Level FlightAware ADS-B
Sun 04:28:23 PM 34.3761 -84.2610 191° South 479 551 36,000  Level FlightAware ADS-B
Sun 04:28:55 PM 34.3054 -84.2777 191° South 482 555 36,000  Level FlightAware ADS-B
Sun 04:29:25 PM 34.2398 -84.2930 191° South 484 557 36,000  Level FlightAware ADS-B
Sun 04:30:26 PM 34.1100 -84.3230 191° South 482 555 36,000  Level FlightAware ADS-B
Sun 04:30:42 PM 34.0721 -84.3322 191° South 483 556 36,000  Level FlightAware ADS-B
Sun 04:31:14 PM 34.0017 -84.3486 191° South 480 552 36,000  Level FlightAware ADS-B
Sun 04:31:51 PM 33.9216 -84.3673 191° South 480 552 36,000  Level FlightAware ADS-B
Sun 04:32:24 PM 33.8516 -84.3836 191° South 483 556 36,000  Level FlightAware ADS-B
Sun 04:32:54 PM 33.7810 -84.3999 191° South 484 557 36,000  Level FlightAware ADS-B
Sun 04:33:25 PM 33.7133 -84.4156 191° South 486 559 36,000  Level FlightAware ADS-B
Sun 04:33:45 PM 33.6697 -84.4251 190° South 488 562 36,000  Level FlightAware ADS-B
Sun 04:34:14 PM 33.6031 -84.4323 185° South 493 567 36,000  Level FlightAware ADS-B
Sun 04:34:44 PM 33.5348 -84.4321 180° South 494 568 36,000  Level FlightAware ADS-B
Sun 04:35:18 PM 33.4572 -84.4310 179° South 489 563 36,000  Level FlightAware ADS-B
Sun 04:35:49 PM 33.3895 -84.4300 179° South 486 559 36,000  Level FlightAware ADS-B
Sun 04:36:20 PM 33.3179 -84.4287 179° South 487 560 36,000  Level FlightAware ADS-B
Sun 04:36:52 PM 33.2471 -84.4272 179° South 487 560 36,000  Level FlightAware ADS-B
Sun 04:37:29 PM 33.1640 -84.4260 179° South 489 563 36,000  Level FlightAware ADS-B
Sun 04:38:01 PM 33.0900 -84.4240 179° South 490 564 36,000  Level FlightAware ADS-B
Sun 04:38:53 PM 32.9740 -84.4370 185° South 477 549 36,000  Level FlightAware ADS-B
Sun 04:39:21 PM 32.9160 -84.4630 201° Southwest 476 548 36,000  Level FlightAware ADS-B
Sun 04:39:57 PM 32.8430 -84.4960 201° Southwest 477 549 36,000 -138 Level FlightAware ADS-B
Sun 04:40:48 PM 32.7610 -84.5340 201° Southwest 477 549 35,800 -439 Descending FlightAware ADS-B
Sun 04:41:19 PM 32.6780 -84.5720 201° Southwest 467 537 35,400 -554 Descending FlightAware ADS-B
Sun 04:41:53 PM 32.6070 -84.6060 202° Southwest 464 534 35,200 -324 Descending FlightAware ADS-B
Sun 04:42:33 PM 32.5290 -84.6440 202° Southwest 463 533 35,000 -273 Descending FlightAware ADS-B
Sun 04:42:37 PM 32.5210 -84.6480 203° Southwest 464 534 35,000  Level FlightAware ADS-B
Sun 04:43:46 PM 32.3850 -84.7020 199° South 470 541 35,000  Level FlightAware ADS-B
Sun 04:44:19 PM 32.3090 -84.7270 196° South 476 548 35,000  Level FlightAware ADS-B
Sun 04:45:03 PM 32.2120 -84.7300 181° South 475 547 35,000  Level FlightAware ADS-B
Sun 04:45:35 PM 32.1420 -84.7290 179° South 467 537 35,000  Level FlightAware ADS-B
Sun 04:46:09 PM 32.0720 -84.7290 180° South 470 541 35,000  Level FlightAware ADS-B
Sun 04:46:57 PM 31.9650 -84.7290 180° South 467 537 35,000  Level FlightAware ADS-B
Sun 04:47:28 PM 31.8970 -84.7300 181° South 466 536 35,000  Level FlightAware ADS-B
Sun 04:48:20 PM 31.7860 -84.7350 182° South 471 542 35,000  Level FlightAware ADS-B
Sun 04:48:54 PM 31.7230 -84.7400 184° South 471 542 35,000  Level FlightAware ADS-B
Sun 04:49:35 PM 31.6220 -84.7610 190° South 471 542 35,000  Level FlightAware ADS-B
Sun 04:50:18 PM 31.5410 -84.7790 191° South 471 542 35,000  Level FlightAware ADS-B
Sun 04:51:01 PM 31.4400 -84.8050 192° South 467 537 35,000  Level FlightAware ADS-B
Sun 04:51:34 PM 31.3700 -84.8210 191° South 464 534 35,000  Level FlightAware ADS-B
Sun 04:52:10 PM 31.2960 -84.8380 191° South 464 534 35,000  Level FlightAware ADS-B
Sun 04:52:48 PM 31.2280 -84.8520 190° South 464 534 35,000  Level FlightAware ADS-B
Sun 04:53:25 PM 31.1610 -84.8650 189° South 464 534 35,000  Level FlightAware ADS-B
Sun 04:53:52 PM 31.0850 -84.9070 205° Southwest 469 540 35,000  Level FlightAware ADS-B
Sun 04:54:28 PM 31.0110 -84.9450 204° Southwest 468 539 35,000  Level FlightAware ADS-B
Sun 04:55:06 PM 30.9360 -84.9810 202° Southwest 460 529 35,000  Level FlightAware ADS-B
Sun 04:55:55 PM 30.8480 -85.0110 196° South 460 529 35,000  Level FlightAware ADS-B
Sun 04:56:44 PM 30.7310 -85.0140 181° South 464 534 35,000  Level FlightAware ADS-B
Sun 04:57:04 PM 30.6900 -84.9940 157° South 463 533 35,000  Level FlightAware ADS-B
Sun 04:57:24 PM 30.6570 -84.9640 142° Southeast 460 529 35,000  Level FlightAware ADS-B
Sun 04:57:58 PM 30.6080 -84.9040 133° Southeast 459 528 35,000  Level FlightAware ADS-B
Sun 04:58:34 PM 30.5540 -84.8380 134° Southeast 457 526 35,000  Level FlightAware ADS-B
Sun 04:59:16 PM 30.4970 -84.7630 131° Southeast 454 522 35,000 -329 Level FlightAware ADS-B
Sun 04:59:47 PM 30.4540 -84.7070 132° Southeast 455 524 34,600 -320 Descending FlightAware ADS-B
Sun 05:00:31 PM 30.4020 -84.6380 131° Southeast 455 524 34,600  Level FlightAware ADS-B
Sun 05:01:05 PM 30.3630 -84.5840 130° Southeast 455 524 34,600  Level FlightAware ADS-B
Sun 05:01:53 PM 30.3060 -84.5090 131° Southeast 455 524 34,600  Level FlightAware ADS-B
Sun 05:02:30 PM 30.2630 -84.4510 131° Southeast 455 524 34,600 -1,352 Level FlightAware ADS-B
Sun 05:03:04 PM 30.1880 -84.3610 134° Southeast 442 509 33,000 -1,000 Descending FlightAware ADS-B
Sun 05:04:06 PM 30.1130 -84.2660 132° Southeast 441 507 33,000  Level FlightAware ADS-B
Sun 05:04:47 PM 30.0640 -84.2020 131° Southeast 441 507 33,000  Level FlightAware ADS-B
Sun 05:05:23 PM 30.0230 -84.1470 131° Southeast 441 507 33,000  Level FlightAware ADS-B
Sun 05:05:59 PM 29.9820 -84.0930 131° Southeast 441 507 33,000  Level FlightAware ADS-B
Sun 05:06:19 PM 30.1860 -84.3610 311° West 33,000  Level FlightAware ADS-B
Sun 05:06:59 PM 29.8620 -83.9470 132° Southeast 439 505 33,000  Level FlightAware ADS-B
Sun 05:07:37 PM 29.8170 -83.8920 133° Southeast 439 505 33,000  Level FlightAware ADS-B
Sun 05:08:13 PM 29.7750 -83.8390 132° Southeast 439 505 33,000  Level FlightAware ADS-B
Sun 05:08:50 PM 29.7310 -83.7860 134° Southeast 439 505 33,000  Level FlightAware ADS-B
Sun 05:09:26 PM 29.6890 -83.7330 132° Southeast 439 505 33,000  Level FlightAware ADS-B
Sun 05:10:03 PM 29.6450 -83.6790 133° Southeast 439 505 33,000  Level FlightAware ADS-B
Sun 05:10:39 PM 29.6030 -83.6270 133° Southeast 439 505 33,000  Level FlightAware ADS-B
Sun 05:11:03 PM 29.5750 -83.5920 133° Southeast 439 505 33,000  Level FlightAware ADS-B
Sun 05:11:27 PM 29.3950 -83.6210 188° South 436 502 33,000  Level FlightAware ADS-B
Sun 05:12:09 PM 29.3420 -83.5860 150° Southeast 436 502 33,000  Level FlightAware ADS-B
Sun 05:12:47 PM 29.2860 -83.5490 150° Southeast 436 502 33,000  Level FlightAware ADS-B
Sun 05:13:15 PM 29.2040 -83.4990 152° Southeast 436 502 33,000  Level FlightAware ADS-B
Sun 05:13:49 PM 29.1470 -83.4620 150° Southeast 437 503 33,000  Level FlightAware ADS-B
Sun 05:14:26 PM 29.0920 -83.4260 150° Southeast 437 503 33,000  Level FlightAware ADS-B
Sun 05:15:04 PM 29.0140 -83.3780 152° Southeast 430 495 33,000  Level FlightAware ADS-B
Sun 05:15:46 PM 28.9410 -83.3320 151° Southeast 435 501 33,000  Level FlightAware ADS-B
Sun 05:16:18 PM 28.8830 -83.2950 151° Southeast 433 498 33,000  Level FlightAware ADS-B
Sun 05:16:57 PM 28.8150 -83.2520 151° Southeast 431 496 33,000  Level FlightAware ADS-B
Sun 05:17:29 PM 28.7610 -83.2180 151° Southeast 433 498 33,000  Level FlightAware ADS-B
Sun 05:18:07 PM 28.6920 -83.1740 151° Southeast 434 499 33,000  Level FlightAware ADS-B
Sun 05:18:39 PM 28.6360 -83.1390 151° Southeast 433 498 33,000  Level FlightAware ADS-B
Sun 05:19:17 PM 28.5700 -83.0970 151° Southeast 431 496 33,000  Level FlightAware ADS-B
Sun 05:19:53 PM 28.5070 -83.0580 151° Southeast 431 496 33,000  Level FlightAware ADS-B
Sun 05:20:23 PM 28.4700 -83.0350 151° Southeast 428 493 33,000  Level FlightAware ADS-B
Sun 05:20:59 PM 28.3930 -82.9870 151° Southeast 431 496 33,000  Level FlightAware ADS-B
Sun 05:21:35 PM 28.3280 -82.9460 151° Southeast 428 493 33,000  Level FlightAware ADS-B
Sun 05:22:11 PM 28.2650 -82.9060 151° Southeast 433 498 33,000  Level FlightAware ADS-B
Sun 05:22:37 PM 28.2210 -82.8790 152° Southeast 432 497 33,000  Level FlightAware ADS-B
Sun 05:23:41 PM 28.1090 -82.8090 151° Southeast 435 501 33,000  Level FlightAware ADS-B
Sun 05:24:15 PM 28.0480 -82.7710 151° Southeast 437 503 33,000  Level FlightAware ADS-B
Sun 05:24:51 PM 27.9850 -82.7320 151° Southeast 424 488 33,000  Level FlightAware ADS-B
Sun 05:25:25 PM 27.9260 -82.6960 152° Southeast 425 489 33,000  Level FlightAware ADS-B
Sun 05:26:01 PM 27.8640 -82.6570 151° Southeast 424 488 33,000  Level FlightAware ADS-B
Sun 05:26:37 PM 27.8030 -82.6150 149° Southeast 425 489 33,000  Level FlightAware ADS-B
Sun 05:27:05 PM 27.7560 -82.5830 149° Southeast 426 490 33,000  Level FlightAware ADS-B
Sun 05:27:45 PM 27.6870 -82.5370 149° Southeast 426 490 33,000  Level FlightAware ADS-B
Sun 05:28:23 PM 27.6220 -82.4940 150° Southeast 436 502 33,000  Level FlightAware ADS-B
Sun 05:28:55 PM 27.5660 -82.4560 149° Southeast 435 501 33,000  Level FlightAware ADS-B
Sun 05:29:32 PM 27.5030 -82.4150 150° Southeast 438 504 33,000  Level FlightAware ADS-B
Sun 05:30:04 PM 27.4480 -82.3780 149° Southeast 442 509 33,000  Level FlightAware ADS-B
Sun 05:30:40 PM 27.3840 -82.3360 150° Southeast 443 510 33,000  Level FlightAware ADS-B
Sun 05:31:16 PM 27.3200 -82.2940 150° Southeast 440 506 33,000  Level FlightAware ADS-B
Sun 05:31:50 PM 27.2600 -82.2540 149° Southeast 436 502 33,000  Level FlightAware ADS-B
Sun 05:32:26 PM 27.1910 -82.2350 166° South 442 509 33,000  Level FlightAware ADS-B
Sun 05:33:02 PM 27.1180 -82.2400 183° South 446 513 33,000 -68 Level FlightAware ADS-B
Sun 05:33:54 PM 27.0090 -82.2480 184° South 444 511 32,900 -452 Descending FlightAware ADS-B
Sun 05:34:35 PM 26.9280 -82.2560 185° South 433 498 32,300 -701 Descending FlightAware ADS-B
Sun 05:35:11 PM 26.8550 -82.2620 184° South 437 503 32,000 -254 Descending FlightAware ADS-B
Sun 05:35:46 PM 26.7850 -82.2690 185° South 432 497 32,000  Level FlightAware ADS-B
Sun 05:36:24 PM 26.7110 -82.2760 185° South 434 499 32,000  Level FlightAware ADS-B
Sun 05:36:55 PM 26.6440 -82.2820 185° South 439 505 32,000  Level FlightAware ADS-B
Sun 05:37:36 PM 26.5600 -82.2890 184° South 438 504 32,000  Level FlightAware ADS-B
Sun 05:38:05 PM 26.4980 -82.2950 185° South 435 501 32,000  Level FlightAware ADS-B
Sun 05:38:41 PM 26.4260 -82.3020 185° South 438 504 32,000  Level FlightAware ADS-B
Sun 05:39:15 PM 26.3580 -82.3080 185° South 432 497 32,000  Level FlightAware ADS-B
Sun 05:39:51 PM 26.2830 -82.3150 185° South 436 502 32,000  Level FlightAware ADS-B
Sun 05:40:27 PM 26.2170 -82.3210 185° South 438 504 32,000  Level FlightAware ADS-B
Sun 05:41:06 PM 26.1310 -82.3290 185° South 434 499 32,000  Level FlightAware ADS-B
Sun 05:41:40 PM 26.0630 -82.3350 185° South 422 486 32,000  Level FlightAware ADS-B
Sun 05:42:01 PM 26.0270 -82.3500 201° Southwest 437 503 32,000  Level FlightAware ADS-B
Sun 05:42:11 PM 26.0070 -82.3650 214° Southwest 436 502 32,000  Level FlightAware ADS-B
Sun 05:42:26 PM 25.9880 -82.3890 229° Southwest 440 506 32,000  Level FlightAware ADS-B
Sun 05:43:06 PM 25.9450 -82.4490 231° Southwest 440 506 32,000  Level FlightAware ADS-B
Sun 05:43:42 PM 25.9050 -82.5020 230° Southwest 440 506 32,000  Level FlightAware ADS-B
Sun 05:44:16 PM 25.8680 -82.5530 231° Southwest 440 506 32,000  Level FlightAware ADS-B
Sun 05:44:43 PM 25.7600 -82.5300 169° South 435 501 32,000  Level FlightAware ADS-B
Sun 05:45:24 PM 25.6790 -82.5300 180° South 432 497 32,000  Level FlightAware ADS-B
Sun 05:46:01 PM 25.6120 -82.5300 180° South 431 496 32,000  Level FlightAware ADS-B
Sun 05:46:49 PM 25.5110 -82.5290 179° South 433 498 32,000  Level FlightAware ADS-B
Sun 05:47:32 PM 25.4360 -82.5280 179° South 432 497 32,000  Level FlightAware ADS-B
Sun 05:48:08 PM 25.3740 -82.5270 179° South 432 497 32,000  Level FlightAware ADS-B
Sun 05:48:34 PM 25.3180 -82.5280 181° South 434 499 32,000  Level FlightAware ADS-B
Sun 05:49:15 PM 25.2480 -82.5260 179° South 434 499 32,000  Level FlightAware ADS-B
Sun 05:49:49 PM 25.1770 -82.5270 181° South 435 501 32,000  Level FlightAware ADS-B
Sun 05:50:35 PM 25.0620 -82.5260 180° South 434 499 32,000 -385 Level FlightAware ADS-B
Sun 05:51:07 PM 24.9960 -82.5260 180° South 449 517 31,500 -1,014 Descending FlightAware ADS-B
Sun 05:51:46 PM 24.9030 -82.5250 179° South 452 520 30,800 -1,029 Descending FlightAware ADS-B
Sun 05:52:17 PM 24.8440 -82.5250 180° South 449 517 30,300 -971 Descending FlightAware ADS-B
Sun 05:52:54 PM 24.7650 -82.5240 179° South 448 516 29,700 -1,026 Descending FlightAware ADS-B
Sun 05:53:33 PM 24.6850 -82.5240 180° South 431 496 29,000 -1,000 Descending FlightAware ADS-B
Sun 05:54:24 PM 24.5780 -82.5230 180° South 434 499 28,200 -571 Descending FlightAware ADS-B
Sun 05:54:57 PM 24.5290 -82.5220 179° South 434 499 28,200  Level FlightAware ADS-B
Sun 05:55:35 PM 24.4640 -82.5210 179° South 434 499 28,200  Level FlightAware ADS-B
Sun 05:56:11 PM 24.4020 -82.5190 178° South 434 499 28,200  Level FlightAware ADS-B
Sun 05:56:47 PM 24.3410 -82.5180 179° South 434 499 28,200  Level FlightAware ADS-B
Sun 05:57:23 PM 24.2800 -82.5170 179° South 434 499 28,200 -2,710 Level FlightAware ADS-B
Sun 05:58:20 PM 24.1280 -82.5190 181° South 406 467 24,000 -2,710 Descending FlightAware ADS-B
Sun 05:58:56 PM 24.0710 -82.5180 179° South 406 467 24,000  Level FlightAware ADS-B
Sun 05:59:33 PM 24.0120 -82.5170 179° South 406 467 24,000  Level FlightAware ADS-B
Sun 06:00:09 PM 23.9540 -82.5160 179° South 406 467 24,000  Level FlightAware ADS-B
Sun 06:00:43 PM 23.9000 -82.5150 179° South 406 467 24,000  Level FlightAware ADS-B
Sun 06:01:19 PM 23.8420 -82.5140 179° South 406 467 24,000  Level FlightAware ADS-B
Sun 06:07:00 PM 23.1302 -82.4160 170° South  Level FlightAware Approximate
Sun 06:08:00 PM 23.0051 -82.4000 180° South  Level FlightAware Approximate
Sun 06:09:00 PM 22.9891 -82.4091 180° South  Level Estimated
Sun 06:10:00 PM 22.9891 -82.4091 180° South  Level Estimated
Sun 06:11:00 PM 22.9891 -82.4091 180° South  Level Estimated
Sun 06:12:00 PM 22.9891 -82.4091 180° South  Level Estimated
Sun 06:13:00 PM 22.9891 -82.4091 180° South  Level Estimated
Sun 06:14:00 PM 22.9891 -82.4091 180° South  Level Estimated
Sun 06:15:00 PM 22.9891 -82.4091 180° South  Level Estimated
Sun 06:16:00 PM 22.9891 -82.4091 180° South  Level Estimated
Sun 06:17:00 PM 22.9891 -82.4091 180° South  Level Estimated
Sun 06:18:00 PM 22.9891 -82.4091 180° South  Level Estimated
Sun 06:19:00 PM 22.9891 -82.4091 180° South  Level Estimated
Sun 06:20:00 PM 22.9891 -82.4091 180° South  Level Estimated
Sun 06:21:00 PM 22.9891 -82.4091 180° South  Level Estimated
Sun 06:22:00 PM 22.9891 -82.4091 180° South  Level Estimated
Sun 06:23:00 PM 22.9891 -82.4091 180° South  Level Estimated
Sun 06:24:00 PM 22.9891 -82.4091 180° South  Level Estimated
Sun 06:25:00 PM 22.9891 -82.4091 180° South  Level Estimated
Sun 06:26:00 PM 22.9891 -82.4091 180° South  Level Estimated
Sun 06:27:00 PM 22.9891 -82.4091 180° South  Level Estimated
Sun 06:28:00 PM 22.9891 -82.4091 180° South  Level Estimated

Login

Don't have an account? Register now (free) for customized features, flight alerts, and more!